<?xml version="1.0" encoding="UTF-8" standalone="no" ?>
<gpx xmlns="http://www.topografix.com/GPX/1/1" xmlns:xsi="http://www.w3.org/2001/XMLSchema-instance" xsi:schemaLocation="http://www.topografix.com/GPX/1/1 http://www.topografix.com/GPX/1/1/gpx.xsd" version="1.1" creator="VisuGPX - https://www.visugpx.com">
  <metadata>
    <name>sortie rehaupal</name>
    <desc><![CDATA[Super génial]]></desc>
  </metadata>
  <trk>
    <name><![CDATA[ACTIVE LOG]]></name>
    <trkseg>
      <trkpt lat="48.11562" lon="6.74998">
        <ele>627</ele>
        <time>2014-10-26T08:11:34Z</time>
      </trkpt>
      <trkpt lat="48.11563" lon="6.7502">
        <ele>628</ele>
        <time>2014-10-26T08:11:53Z</time>
      </trkpt>
      <trkpt lat="48.11539" lon="6.74975">
        <ele>626</ele>
        <time>2014-10-26T08:12:07Z</time>
      </trkpt>
      <trkpt lat="48.11538" lon="6.74974">
        <ele>626</ele>
        <time>2014-10-26T08:12:17Z</time>
      </trkpt>
      <trkpt lat="48.11536" lon="6.75004">
        <ele>627</ele>
        <time>2014-10-26T08:12:30Z</time>
      </trkpt>
      <trkpt lat="48.11539" lon="6.75065">
        <ele>628</ele>
        <time>2014-10-26T08:12:42Z</time>
      </trkpt>
      <trkpt lat="48.11536" lon="6.75103">
        <ele>630</ele>
        <time>2014-10-26T08:12:53Z</time>
      </trkpt>
      <trkpt lat="48.11531" lon="6.75151">
        <ele>631</ele>
        <time>2014-10-26T08:13:05Z</time>
      </trkpt>
      <trkpt lat="48.11522" lon="6.75229">
        <ele>632</ele>
        <time>2014-10-26T08:13:22Z</time>
      </trkpt>
      <trkpt lat="48.11525" lon="6.75293">
        <ele>635</ele>
        <time>2014-10-26T08:13:37Z</time>
      </trkpt>
      <trkpt lat="48.11513" lon="6.75337">
        <ele>635</ele>
        <time>2014-10-26T08:13:50Z</time>
      </trkpt>
      <trkpt lat="48.11487" lon="6.75378">
        <ele>631</ele>
        <time>2014-10-26T08:14:03Z</time>
      </trkpt>
      <trkpt lat="48.1146" lon="6.75404">
        <ele>630</ele>
        <time>2014-10-26T08:14:11Z</time>
      </trkpt>
      <trkpt lat="48.11406" lon="6.7542">
        <ele>630</ele>
        <time>2014-10-26T08:14:22Z</time>
      </trkpt>
      <trkpt lat="48.1138" lon="6.75429">
        <ele>632</ele>
        <time>2014-10-26T08:14:32Z</time>
      </trkpt>
      <trkpt lat="48.11356" lon="6.75443">
        <ele>633</ele>
        <time>2014-10-26T08:14:41Z</time>
      </trkpt>
      <trkpt lat="48.11325" lon="6.75451">
        <ele>640</ele>
        <time>2014-10-26T08:14:52Z</time>
      </trkpt>
      <trkpt lat="48.1131" lon="6.75449">
        <ele>640</ele>
        <time>2014-10-26T08:15:00Z</time>
      </trkpt>
      <trkpt lat="48.11302" lon="6.75448">
        <ele>641</ele>
        <time>2014-10-26T08:15:06Z</time>
      </trkpt>
      <trkpt lat="48.11279" lon="6.75446">
        <ele>642</ele>
        <time>2014-10-26T08:15:18Z</time>
      </trkpt>
      <trkpt lat="48.11263" lon="6.7544">
        <ele>643</ele>
        <time>2014-10-26T08:15:29Z</time>
      </trkpt>
      <trkpt lat="48.11261" lon="6.7544">
        <ele>643</ele>
        <time>2014-10-26T08:15:30Z</time>
      </trkpt>
      <trkpt lat="48.11242" lon="6.75437">
        <ele>648</ele>
        <time>2014-10-26T08:15:39Z</time>
      </trkpt>
      <trkpt lat="48.11233" lon="6.75435">
        <ele>648</ele>
        <time>2014-10-26T08:15:44Z</time>
      </trkpt>
      <trkpt lat="48.11216" lon="6.75428">
        <ele>649</ele>
        <time>2014-10-26T08:15:55Z</time>
      </trkpt>
      <trkpt lat="48.11194" lon="6.75423">
        <ele>649</ele>
        <time>2014-10-26T08:16:08Z</time>
      </trkpt>
      <trkpt lat="48.1119" lon="6.75422">
        <ele>649</ele>
        <time>2014-10-26T08:16:11Z</time>
      </trkpt>
      <trkpt lat="48.11176" lon="6.75411">
        <ele>644</ele>
        <time>2014-10-26T08:16:19Z</time>
      </trkpt>
      <trkpt lat="48.11157" lon="6.75377">
        <ele>645</ele>
        <time>2014-10-26T08:16:33Z</time>
      </trkpt>
      <trkpt lat="48.11125" lon="6.75387">
        <ele>646</ele>
        <time>2014-10-26T08:16:44Z</time>
      </trkpt>
      <trkpt lat="48.11122" lon="6.75388">
        <ele>647</ele>
        <time>2014-10-26T08:16:45Z</time>
      </trkpt>
      <trkpt lat="48.11089" lon="6.75411">
        <ele>653</ele>
        <time>2014-10-26T08:16:55Z</time>
      </trkpt>
      <trkpt lat="48.11057" lon="6.75443">
        <ele>656</ele>
        <time>2014-10-26T08:17:08Z</time>
      </trkpt>
      <trkpt lat="48.11032" lon="6.75467">
        <ele>657</ele>
        <time>2014-10-26T08:17:19Z</time>
      </trkpt>
      <trkpt lat="48.10992" lon="6.75481">
        <ele>651</ele>
        <time>2014-10-26T08:17:31Z</time>
      </trkpt>
      <trkpt lat="48.10963" lon="6.75509">
        <ele>657</ele>
        <time>2014-10-26T08:17:42Z</time>
      </trkpt>
      <trkpt lat="48.10927" lon="6.75542">
        <ele>656</ele>
        <time>2014-10-26T08:17:56Z</time>
      </trkpt>
      <trkpt lat="48.10904" lon="6.75558">
        <ele>649</ele>
        <time>2014-10-26T08:18:01Z</time>
      </trkpt>
      <trkpt lat="48.10878" lon="6.75571">
        <ele>648</ele>
        <time>2014-10-26T08:18:06Z</time>
      </trkpt>
      <trkpt lat="48.10861" lon="6.75581">
        <ele>647</ele>
        <time>2014-10-26T08:18:09Z</time>
      </trkpt>
      <trkpt lat="48.10825" lon="6.75612">
        <ele>648</ele>
        <time>2014-10-26T08:18:17Z</time>
      </trkpt>
      <trkpt lat="48.10816" lon="6.75604">
        <ele>647</ele>
        <time>2014-10-26T08:18:21Z</time>
      </trkpt>
      <trkpt lat="48.10794" lon="6.75611">
        <ele>646</ele>
        <time>2014-10-26T08:18:26Z</time>
      </trkpt>
      <trkpt lat="48.10763" lon="6.75619">
        <ele>644</ele>
        <time>2014-10-26T08:18:31Z</time>
      </trkpt>
      <trkpt lat="48.10733" lon="6.75634">
        <ele>640</ele>
        <time>2014-10-26T08:18:35Z</time>
      </trkpt>
      <trkpt lat="48.10667" lon="6.75645">
        <ele>636</ele>
        <time>2014-10-26T08:18:43Z</time>
      </trkpt>
      <trkpt lat="48.10569" lon="6.75685">
        <ele>631</ele>
        <time>2014-10-26T08:18:54Z</time>
      </trkpt>
      <trkpt lat="48.10521" lon="6.75711">
        <ele>631</ele>
        <time>2014-10-26T08:18:59Z</time>
      </trkpt>
      <trkpt lat="48.1048" lon="6.75728">
        <ele>626</ele>
        <time>2014-10-26T08:19:03Z</time>
      </trkpt>
      <trkpt lat="48.10446" lon="6.75737">
        <ele>624</ele>
        <time>2014-10-26T08:19:07Z</time>
      </trkpt>
      <trkpt lat="48.10422" lon="6.75744">
        <ele>624</ele>
        <time>2014-10-26T08:19:10Z</time>
      </trkpt>
      <trkpt lat="48.10396" lon="6.75762">
        <ele>628</ele>
        <time>2014-10-26T08:19:15Z</time>
      </trkpt>
      <trkpt lat="48.1037" lon="6.75785">
        <ele>629</ele>
        <time>2014-10-26T08:19:25Z</time>
      </trkpt>
      <trkpt lat="48.1036" lon="6.75792">
        <ele>629</ele>
        <time>2014-10-26T08:19:31Z</time>
      </trkpt>
      <trkpt lat="48.10343" lon="6.75794">
        <ele>628</ele>
        <time>2014-10-26T08:19:40Z</time>
      </trkpt>
      <trkpt lat="48.10334" lon="6.75802">
        <ele>628</ele>
        <time>2014-10-26T08:19:47Z</time>
      </trkpt>
      <trkpt lat="48.10333" lon="6.75808">
        <ele>634</ele>
        <time>2014-10-26T08:19:49Z</time>
      </trkpt>
      <trkpt lat="48.10333" lon="6.75828">
        <ele>624</ele>
        <time>2014-10-26T08:19:55Z</time>
      </trkpt>
      <trkpt lat="48.10335" lon="6.75871">
        <ele>633</ele>
        <time>2014-10-26T08:20:05Z</time>
      </trkpt>
      <trkpt lat="48.10334" lon="6.75876">
        <ele>633</ele>
        <time>2014-10-26T08:20:06Z</time>
      </trkpt>
      <trkpt lat="48.10325" lon="6.75916">
        <ele>630</ele>
        <time>2014-10-26T08:20:16Z</time>
      </trkpt>
      <trkpt lat="48.10319" lon="6.75957">
        <ele>638</ele>
        <time>2014-10-26T08:20:27Z</time>
      </trkpt>
      <trkpt lat="48.10316" lon="6.75967">
        <ele>639</ele>
        <time>2014-10-26T08:20:30Z</time>
      </trkpt>
      <trkpt lat="48.10296" lon="6.75999">
        <ele>639</ele>
        <time>2014-10-26T08:20:42Z</time>
      </trkpt>
      <trkpt lat="48.10294" lon="6.76004">
        <ele>644</ele>
        <time>2014-10-26T08:20:45Z</time>
      </trkpt>
      <trkpt lat="48.10276" lon="6.76029">
        <ele>643</ele>
        <time>2014-10-26T08:20:55Z</time>
      </trkpt>
      <trkpt lat="48.10272" lon="6.76037">
        <ele>643</ele>
        <time>2014-10-26T08:20:57Z</time>
      </trkpt>
      <trkpt lat="48.10266" lon="6.76052">
        <ele>642</ele>
        <time>2014-10-26T08:21:00Z</time>
      </trkpt>
      <trkpt lat="48.10252" lon="6.76075">
        <ele>639</ele>
        <time>2014-10-26T08:21:06Z</time>
      </trkpt>
      <trkpt lat="48.10246" lon="6.7608">
        <ele>637</ele>
        <time>2014-10-26T08:21:09Z</time>
      </trkpt>
      <trkpt lat="48.1024" lon="6.76087">
        <ele>640</ele>
        <time>2014-10-26T08:21:27Z</time>
      </trkpt>
      <trkpt lat="48.10226" lon="6.76102">
        <ele>643</ele>
        <time>2014-10-26T08:21:34Z</time>
      </trkpt>
      <trkpt lat="48.10223" lon="6.76115">
        <ele>645</ele>
        <time>2014-10-26T08:21:38Z</time>
      </trkpt>
      <trkpt lat="48.10217" lon="6.76126">
        <ele>647</ele>
        <time>2014-10-26T08:21:43Z</time>
      </trkpt>
      <trkpt lat="48.10191" lon="6.7615">
        <ele>646</ele>
        <time>2014-10-26T08:21:58Z</time>
      </trkpt>
      <trkpt lat="48.10179" lon="6.76157">
        <ele>645</ele>
        <time>2014-10-26T08:22:05Z</time>
      </trkpt>
      <trkpt lat="48.10172" lon="6.76167">
        <ele>649</ele>
        <time>2014-10-26T08:22:15Z</time>
      </trkpt>
      <trkpt lat="48.10174" lon="6.76169">
        <ele>651</ele>
        <time>2014-10-26T08:22:18Z</time>
      </trkpt>
      <trkpt lat="48.10161" lon="6.76178">
        <ele>648</ele>
        <time>2014-10-26T08:22:24Z</time>
      </trkpt>
      <trkpt lat="48.10154" lon="6.76187">
        <ele>651</ele>
        <time>2014-10-26T08:22:28Z</time>
      </trkpt>
      <trkpt lat="48.10142" lon="6.76202">
        <ele>654</ele>
        <time>2014-10-26T08:22:36Z</time>
      </trkpt>
      <trkpt lat="48.10132" lon="6.76224">
        <ele>656</ele>
        <time>2014-10-26T08:22:44Z</time>
      </trkpt>
      <trkpt lat="48.10104" lon="6.76264">
        <ele>665</ele>
        <time>2014-10-26T08:22:57Z</time>
      </trkpt>
      <trkpt lat="48.10102" lon="6.76266">
        <ele>665</ele>
        <time>2014-10-26T08:22:58Z</time>
      </trkpt>
      <trkpt lat="48.1009" lon="6.76276">
        <ele>666</ele>
        <time>2014-10-26T08:23:03Z</time>
      </trkpt>
      <trkpt lat="48.1006" lon="6.76301">
        <ele>660</ele>
        <time>2014-10-26T08:23:15Z</time>
      </trkpt>
      <trkpt lat="48.10053" lon="6.76304">
        <ele>660</ele>
        <time>2014-10-26T08:23:17Z</time>
      </trkpt>
      <trkpt lat="48.10041" lon="6.76327">
        <ele>660</ele>
        <time>2014-10-26T08:23:27Z</time>
      </trkpt>
      <trkpt lat="48.10025" lon="6.76355">
        <ele>673</ele>
        <time>2014-10-26T08:23:38Z</time>
      </trkpt>
      <trkpt lat="48.10029" lon="6.76397">
        <ele>680</ele>
        <time>2014-10-26T08:23:48Z</time>
      </trkpt>
      <trkpt lat="48.10022" lon="6.76413">
        <ele>682</ele>
        <time>2014-10-26T08:23:58Z</time>
      </trkpt>
      <trkpt lat="48.10013" lon="6.76411">
        <ele>683</ele>
        <time>2014-10-26T08:24:04Z</time>
      </trkpt>
      <trkpt lat="48.09987" lon="6.76405">
        <ele>677</ele>
        <time>2014-10-26T08:24:21Z</time>
      </trkpt>
      <trkpt lat="48.09964" lon="6.76385">
        <ele>669</ele>
        <time>2014-10-26T08:24:37Z</time>
      </trkpt>
      <trkpt lat="48.09962" lon="6.76391">
        <ele>670</ele>
        <time>2014-10-26T08:24:41Z</time>
      </trkpt>
      <trkpt lat="48.09946" lon="6.76405">
        <ele>670</ele>
        <time>2014-10-26T08:24:49Z</time>
      </trkpt>
      <trkpt lat="48.09928" lon="6.76404">
        <ele>669</ele>
        <time>2014-10-26T08:24:58Z</time>
      </trkpt>
      <trkpt lat="48.09897" lon="6.76406">
        <ele>662</ele>
        <time>2014-10-26T08:25:11Z</time>
      </trkpt>
      <trkpt lat="48.09866" lon="6.76423">
        <ele>663</ele>
        <time>2014-10-26T08:25:26Z</time>
      </trkpt>
      <trkpt lat="48.09841" lon="6.76457">
        <ele>664</ele>
        <time>2014-10-26T08:25:39Z</time>
      </trkpt>
      <trkpt lat="48.0981" lon="6.7648">
        <ele>658</ele>
        <time>2014-10-26T08:25:50Z</time>
      </trkpt>
      <trkpt lat="48.09808" lon="6.7648">
        <ele>657</ele>
        <time>2014-10-26T08:25:51Z</time>
      </trkpt>
      <trkpt lat="48.09795" lon="6.76486">
        <ele>657</ele>
        <time>2014-10-26T08:25:56Z</time>
      </trkpt>
      <trkpt lat="48.09769" lon="6.76499">
        <ele>655</ele>
        <time>2014-10-26T08:26:07Z</time>
      </trkpt>
      <trkpt lat="48.09757" lon="6.76506">
        <ele>659</ele>
        <time>2014-10-26T08:26:14Z</time>
      </trkpt>
      <trkpt lat="48.09749" lon="6.76513">
        <ele>661</ele>
        <time>2014-10-26T08:26:21Z</time>
      </trkpt>
      <trkpt lat="48.09748" lon="6.7652">
        <ele>663</ele>
        <time>2014-10-26T08:26:26Z</time>
      </trkpt>
      <trkpt lat="48.09745" lon="6.76527">
        <ele>664</ele>
        <time>2014-10-26T08:26:42Z</time>
      </trkpt>
      <trkpt lat="48.0974" lon="6.76529">
        <ele>665</ele>
        <time>2014-10-26T08:27:10Z</time>
      </trkpt>
      <trkpt lat="48.0974" lon="6.76537">
        <ele>666</ele>
        <time>2014-10-26T08:27:14Z</time>
      </trkpt>
      <trkpt lat="48.0974" lon="6.76542">
        <ele>667</ele>
        <time>2014-10-26T08:27:16Z</time>
      </trkpt>
      <trkpt lat="48.09738" lon="6.76563">
        <ele>669</ele>
        <time>2014-10-26T08:27:25Z</time>
      </trkpt>
      <trkpt lat="48.09737" lon="6.76568">
        <ele>670</ele>
        <time>2014-10-26T08:27:27Z</time>
      </trkpt>
      <trkpt lat="48.09734" lon="6.76576">
        <ele>670</ele>
        <time>2014-10-26T08:27:31Z</time>
      </trkpt>
      <trkpt lat="48.09735" lon="6.76585">
        <ele>674</ele>
        <time>2014-10-26T08:27:36Z</time>
      </trkpt>
      <trkpt lat="48.09734" lon="6.766">
        <ele>675</ele>
        <time>2014-10-26T08:27:43Z</time>
      </trkpt>
      <trkpt lat="48.09733" lon="6.7661">
        <ele>676</ele>
        <time>2014-10-26T08:27:48Z</time>
      </trkpt>
      <trkpt lat="48.09733" lon="6.76616">
        <ele>676</ele>
        <time>2014-10-26T08:27:52Z</time>
      </trkpt>
      <trkpt lat="48.09733" lon="6.7663">
        <ele>677</ele>
        <time>2014-10-26T08:28:00Z</time>
      </trkpt>
      <trkpt lat="48.09732" lon="6.76641">
        <ele>677</ele>
        <time>2014-10-26T08:28:08Z</time>
      </trkpt>
      <trkpt lat="48.09737" lon="6.76646">
        <ele>677</ele>
        <time>2014-10-26T08:28:29Z</time>
      </trkpt>
      <trkpt lat="48.09734" lon="6.76659">
        <ele>677</ele>
        <time>2014-10-26T08:28:36Z</time>
      </trkpt>
      <trkpt lat="48.09737" lon="6.76666">
        <ele>677</ele>
        <time>2014-10-26T08:28:39Z</time>
      </trkpt>
      <trkpt lat="48.09737" lon="6.76688">
        <ele>679</ele>
        <time>2014-10-26T08:28:48Z</time>
      </trkpt>
      <trkpt lat="48.09737" lon="6.76703">
        <ele>679</ele>
        <time>2014-10-26T08:28:53Z</time>
      </trkpt>
      <trkpt lat="48.09736" lon="6.76715">
        <ele>679</ele>
        <time>2014-10-26T08:28:58Z</time>
      </trkpt>
      <trkpt lat="48.09733" lon="6.76726">
        <ele>679</ele>
        <time>2014-10-26T08:29:04Z</time>
      </trkpt>
      <trkpt lat="48.09726" lon="6.76736">
        <ele>679</ele>
        <time>2014-10-26T08:29:14Z</time>
      </trkpt>
      <trkpt lat="48.09728" lon="6.76739">
        <ele>678</ele>
        <time>2014-10-26T08:29:30Z</time>
      </trkpt>
      <trkpt lat="48.0973" lon="6.76742">
        <ele>678</ele>
        <time>2014-10-26T08:29:38Z</time>
      </trkpt>
      <trkpt lat="48.09721" lon="6.76747">
        <ele>679</ele>
        <time>2014-10-26T08:29:48Z</time>
      </trkpt>
      <trkpt lat="48.0972" lon="6.76749">
        <ele>679</ele>
        <time>2014-10-26T08:29:54Z</time>
      </trkpt>
      <trkpt lat="48.09721" lon="6.76756">
        <ele>680</ele>
        <time>2014-10-26T08:30:01Z</time>
      </trkpt>
      <trkpt lat="48.09707" lon="6.76759">
        <ele>681</ele>
        <time>2014-10-26T08:30:15Z</time>
      </trkpt>
      <trkpt lat="48.09705" lon="6.7676">
        <ele>681</ele>
        <time>2014-10-26T08:30:17Z</time>
      </trkpt>
      <trkpt lat="48.09696" lon="6.76766">
        <ele>682</ele>
        <time>2014-10-26T08:30:25Z</time>
      </trkpt>
      <trkpt lat="48.09682" lon="6.76778">
        <ele>682</ele>
        <time>2014-10-26T08:30:36Z</time>
      </trkpt>
      <trkpt lat="48.0968" lon="6.7678">
        <ele>682</ele>
        <time>2014-10-26T08:30:39Z</time>
      </trkpt>
      <trkpt lat="48.0967" lon="6.7679">
        <ele>683</ele>
        <time>2014-10-26T08:30:49Z</time>
      </trkpt>
      <trkpt lat="48.09655" lon="6.76815">
        <ele>684</ele>
        <time>2014-10-26T08:31:15Z</time>
      </trkpt>
      <trkpt lat="48.09652" lon="6.76814">
        <ele>684</ele>
        <time>2014-10-26T08:31:17Z</time>
      </trkpt>
      <trkpt lat="48.09641" lon="6.76815">
        <ele>684</ele>
        <time>2014-10-26T08:31:24Z</time>
      </trkpt>
      <trkpt lat="48.09622" lon="6.76815">
        <ele>684</ele>
        <time>2014-10-26T08:31:35Z</time>
      </trkpt>
      <trkpt lat="48.09596" lon="6.76814">
        <ele>684</ele>
        <time>2014-10-26T08:31:45Z</time>
      </trkpt>
      <trkpt lat="48.0958" lon="6.76813">
        <ele>684</ele>
        <time>2014-10-26T08:31:51Z</time>
      </trkpt>
      <trkpt lat="48.09549" lon="6.76816">
        <ele>684</ele>
        <time>2014-10-26T08:32:02Z</time>
      </trkpt>
      <trkpt lat="48.09544" lon="6.76817">
        <ele>684</ele>
        <time>2014-10-26T08:32:04Z</time>
      </trkpt>
      <trkpt lat="48.09519" lon="6.76821">
        <ele>682</ele>
        <time>2014-10-26T08:32:17Z</time>
      </trkpt>
      <trkpt lat="48.09503" lon="6.76821">
        <ele>681</ele>
        <time>2014-10-26T08:32:32Z</time>
      </trkpt>
      <trkpt lat="48.09439" lon="6.768">
        <ele>680</ele>
        <time>2014-10-26T08:32:45Z</time>
      </trkpt>
      <trkpt lat="48.09426" lon="6.76816">
        <ele>677</ele>
        <time>2014-10-26T08:32:58Z</time>
      </trkpt>
      <trkpt lat="48.09424" lon="6.76817">
        <ele>676</ele>
        <time>2014-10-26T08:33:00Z</time>
      </trkpt>
      <trkpt lat="48.09409" lon="6.76825">
        <ele>673</ele>
        <time>2014-10-26T08:33:10Z</time>
      </trkpt>
      <trkpt lat="48.094" lon="6.76832">
        <ele>673</ele>
        <time>2014-10-26T08:33:21Z</time>
      </trkpt>
      <trkpt lat="48.09398" lon="6.76841">
        <ele>670</ele>
        <time>2014-10-26T08:33:28Z</time>
      </trkpt>
      <trkpt lat="48.09394" lon="6.76844">
        <ele>669</ele>
        <time>2014-10-26T08:33:32Z</time>
      </trkpt>
      <trkpt lat="48.09371" lon="6.7687">
        <ele>668</ele>
        <time>2014-10-26T08:33:45Z</time>
      </trkpt>
      <trkpt lat="48.09343" lon="6.76875">
        <ele>667</ele>
        <time>2014-10-26T08:33:56Z</time>
      </trkpt>
      <trkpt lat="48.09337" lon="6.76873">
        <ele>667</ele>
        <time>2014-10-26T08:33:58Z</time>
      </trkpt>
      <trkpt lat="48.09319" lon="6.76834">
        <ele>665</ele>
        <time>2014-10-26T08:34:11Z</time>
      </trkpt>
      <trkpt lat="48.09317" lon="6.76828">
        <ele>670</ele>
        <time>2014-10-26T08:34:13Z</time>
      </trkpt>
      <trkpt lat="48.093" lon="6.76792">
        <ele>673</ele>
        <time>2014-10-26T08:34:26Z</time>
      </trkpt>
      <trkpt lat="48.09267" lon="6.76764">
        <ele>676</ele>
        <time>2014-10-26T08:34:40Z</time>
      </trkpt>
      <trkpt lat="48.09263" lon="6.76759">
        <ele>677</ele>
        <time>2014-10-26T08:34:42Z</time>
      </trkpt>
      <trkpt lat="48.09268" lon="6.76751">
        <ele>677</ele>
        <time>2014-10-26T08:34:49Z</time>
      </trkpt>
      <trkpt lat="48.09282" lon="6.76753">
        <ele>676</ele>
        <time>2014-10-26T08:34:57Z</time>
      </trkpt>
      <trkpt lat="48.09307" lon="6.76759">
        <ele>676</ele>
        <time>2014-10-26T08:35:10Z</time>
      </trkpt>
      <trkpt lat="48.09317" lon="6.76759">
        <ele>677</ele>
        <time>2014-10-26T08:35:15Z</time>
      </trkpt>
      <trkpt lat="48.09339" lon="6.7676">
        <ele>679</ele>
        <time>2014-10-26T08:35:26Z</time>
      </trkpt>
      <trkpt lat="48.09363" lon="6.76743">
        <ele>690</ele>
        <time>2014-10-26T08:35:40Z</time>
      </trkpt>
      <trkpt lat="48.09402" lon="6.76731">
        <ele>692</ele>
        <time>2014-10-26T08:35:57Z</time>
      </trkpt>
      <trkpt lat="48.09436" lon="6.76721">
        <ele>694</ele>
        <time>2014-10-26T08:36:12Z</time>
      </trkpt>
      <trkpt lat="48.0947" lon="6.76687">
        <ele>697</ele>
        <time>2014-10-26T08:36:26Z</time>
      </trkpt>
      <trkpt lat="48.09482" lon="6.76673">
        <ele>698</ele>
        <time>2014-10-26T08:36:33Z</time>
      </trkpt>
      <trkpt lat="48.0951" lon="6.76649">
        <ele>699</ele>
        <time>2014-10-26T08:36:44Z</time>
      </trkpt>
      <trkpt lat="48.09549" lon="6.76596">
        <ele>698</ele>
        <time>2014-10-26T08:36:56Z</time>
      </trkpt>
      <trkpt lat="48.09588" lon="6.76495">
        <ele>699</ele>
        <time>2014-10-26T08:37:06Z</time>
      </trkpt>
      <trkpt lat="48.09605" lon="6.76458">
        <ele>693</ele>
        <time>2014-10-26T08:37:10Z</time>
      </trkpt>
      <trkpt lat="48.09622" lon="6.76421">
        <ele>692</ele>
        <time>2014-10-26T08:37:14Z</time>
      </trkpt>
      <trkpt lat="48.09627" lon="6.76396">
        <ele>694</ele>
        <time>2014-10-26T08:37:17Z</time>
      </trkpt>
      <trkpt lat="48.09627" lon="6.76372">
        <ele>695</ele>
        <time>2014-10-26T08:37:20Z</time>
      </trkpt>
      <trkpt lat="48.09624" lon="6.76355">
        <ele>696</ele>
        <time>2014-10-26T08:37:22Z</time>
      </trkpt>
      <trkpt lat="48.09618" lon="6.76328">
        <ele>700</ele>
        <time>2014-10-26T08:37:25Z</time>
      </trkpt>
      <trkpt lat="48.09615" lon="6.76283">
        <ele>699</ele>
        <time>2014-10-26T08:37:30Z</time>
      </trkpt>
      <trkpt lat="48.09614" lon="6.76246">
        <ele>700</ele>
        <time>2014-10-26T08:37:34Z</time>
      </trkpt>
      <trkpt lat="48.09616" lon="6.76228">
        <ele>699</ele>
        <time>2014-10-26T08:37:36Z</time>
      </trkpt>
      <trkpt lat="48.09623" lon="6.76208">
        <ele>698</ele>
        <time>2014-10-26T08:37:40Z</time>
      </trkpt>
      <trkpt lat="48.09626" lon="6.76204">
        <ele>698</ele>
        <time>2014-10-26T08:37:43Z</time>
      </trkpt>
      <trkpt lat="48.09634" lon="6.76187">
        <ele>698</ele>
        <time>2014-10-26T08:37:54Z</time>
      </trkpt>
      <trkpt lat="48.09641" lon="6.76181">
        <ele>698</ele>
        <time>2014-10-26T08:38:03Z</time>
      </trkpt>
      <trkpt lat="48.09665" lon="6.76193">
        <ele>698</ele>
        <time>2014-10-26T08:38:15Z</time>
      </trkpt>
      <trkpt lat="48.09671" lon="6.76194">
        <ele>695</ele>
        <time>2014-10-26T08:38:18Z</time>
      </trkpt>
      <trkpt lat="48.09687" lon="6.76194">
        <ele>695</ele>
        <time>2014-10-26T08:38:26Z</time>
      </trkpt>
      <trkpt lat="48.09704" lon="6.76187">
        <ele>695</ele>
        <time>2014-10-26T08:38:34Z</time>
      </trkpt>
      <trkpt lat="48.09731" lon="6.76175">
        <ele>696</ele>
        <time>2014-10-26T08:38:46Z</time>
      </trkpt>
      <trkpt lat="48.09745" lon="6.7617">
        <ele>698</ele>
        <time>2014-10-26T08:38:51Z</time>
      </trkpt>
      <trkpt lat="48.09753" lon="6.76168">
        <ele>699</ele>
        <time>2014-10-26T08:38:55Z</time>
      </trkpt>
      <trkpt lat="48.09762" lon="6.76166">
        <ele>702</ele>
        <time>2014-10-26T08:38:59Z</time>
      </trkpt>
      <trkpt lat="48.09776" lon="6.76166">
        <ele>703</ele>
        <time>2014-10-26T08:39:05Z</time>
      </trkpt>
      <trkpt lat="48.09787" lon="6.76169">
        <ele>694</ele>
        <time>2014-10-26T08:39:10Z</time>
      </trkpt>
      <trkpt lat="48.09821" lon="6.76169">
        <ele>695</ele>
        <time>2014-10-26T08:39:21Z</time>
      </trkpt>
      <trkpt lat="48.09847" lon="6.76164">
        <ele>700</ele>
        <time>2014-10-26T08:39:30Z</time>
      </trkpt>
      <trkpt lat="48.09873" lon="6.76161">
        <ele>700</ele>
        <time>2014-10-26T08:39:38Z</time>
      </trkpt>
      <trkpt lat="48.09902" lon="6.76147">
        <ele>699</ele>
        <time>2014-10-26T08:39:48Z</time>
      </trkpt>
      <trkpt lat="48.09936" lon="6.76123">
        <ele>693</ele>
        <time>2014-10-26T08:39:58Z</time>
      </trkpt>
      <trkpt lat="48.09971" lon="6.76098">
        <ele>692</ele>
        <time>2014-10-26T08:40:09Z</time>
      </trkpt>
      <trkpt lat="48.09978" lon="6.76088">
        <ele>692</ele>
        <time>2014-10-26T08:40:12Z</time>
      </trkpt>
      <trkpt lat="48.10003" lon="6.76063">
        <ele>692</ele>
        <time>2014-10-26T08:40:21Z</time>
      </trkpt>
      <trkpt lat="48.10025" lon="6.76042">
        <ele>692</ele>
        <time>2014-10-26T08:40:30Z</time>
      </trkpt>
      <trkpt lat="48.10034" lon="6.7603">
        <ele>692</ele>
        <time>2014-10-26T08:40:34Z</time>
      </trkpt>
      <trkpt lat="48.10042" lon="6.75997">
        <ele>704</ele>
        <time>2014-10-26T08:40:41Z</time>
      </trkpt>
      <trkpt lat="48.10054" lon="6.75956">
        <ele>704</ele>
        <time>2014-10-26T08:40:50Z</time>
      </trkpt>
      <trkpt lat="48.10059" lon="6.75947">
        <ele>704</ele>
        <time>2014-10-26T08:40:52Z</time>
      </trkpt>
      <trkpt lat="48.10066" lon="6.75932">
        <ele>704</ele>
        <time>2014-10-26T08:40:56Z</time>
      </trkpt>
      <trkpt lat="48.10073" lon="6.75914">
        <ele>705</ele>
        <time>2014-10-26T08:41:03Z</time>
      </trkpt>
      <trkpt lat="48.1009" lon="6.75864">
        <ele>699</ele>
        <time>2014-10-26T08:41:15Z</time>
      </trkpt>
      <trkpt lat="48.10095" lon="6.75829">
        <ele>706</ele>
        <time>2014-10-26T08:41:22Z</time>
      </trkpt>
      <trkpt lat="48.10098" lon="6.75785">
        <ele>702</ele>
        <time>2014-10-26T08:41:31Z</time>
      </trkpt>
      <trkpt lat="48.10098" lon="6.75753">
        <ele>703</ele>
        <time>2014-10-26T08:41:37Z</time>
      </trkpt>
      <trkpt lat="48.10096" lon="6.75739">
        <ele>702</ele>
        <time>2014-10-26T08:41:42Z</time>
      </trkpt>
      <trkpt lat="48.10098" lon="6.75731">
        <ele>701</ele>
        <time>2014-10-26T08:41:53Z</time>
      </trkpt>
      <trkpt lat="48.10092" lon="6.75731">
        <ele>702</ele>
        <time>2014-10-26T08:42:00Z</time>
      </trkpt>
      <trkpt lat="48.10079" lon="6.75726">
        <ele>706</ele>
        <time>2014-10-26T08:42:08Z</time>
      </trkpt>
      <trkpt lat="48.10068" lon="6.75726">
        <ele>706</ele>
        <time>2014-10-26T08:42:18Z</time>
      </trkpt>
      <trkpt lat="48.10063" lon="6.7573">
        <ele>706</ele>
        <time>2014-10-26T08:42:22Z</time>
      </trkpt>
      <trkpt lat="48.10051" lon="6.75741">
        <ele>707</ele>
        <time>2014-10-26T08:42:33Z</time>
      </trkpt>
      <trkpt lat="48.10048" lon="6.75741">
        <ele>707</ele>
        <time>2014-10-26T08:42:34Z</time>
      </trkpt>
      <trkpt lat="48.10022" lon="6.75745">
        <ele>709</ele>
        <time>2014-10-26T08:42:45Z</time>
      </trkpt>
      <trkpt lat="48.10007" lon="6.75744">
        <ele>711</ele>
        <time>2014-10-26T08:42:54Z</time>
      </trkpt>
      <trkpt lat="48.09991" lon="6.75745">
        <ele>714</ele>
        <time>2014-10-26T08:43:04Z</time>
      </trkpt>
      <trkpt lat="48.09975" lon="6.75736">
        <ele>716</ele>
        <time>2014-10-26T08:43:15Z</time>
      </trkpt>
      <trkpt lat="48.09973" lon="6.75733">
        <ele>716</ele>
        <time>2014-10-26T08:43:17Z</time>
      </trkpt>
      <trkpt lat="48.09969" lon="6.7573">
        <ele>716</ele>
        <time>2014-10-26T08:43:19Z</time>
      </trkpt>
      <trkpt lat="48.09955" lon="6.75716">
        <ele>717</ele>
        <time>2014-10-26T08:43:29Z</time>
      </trkpt>
      <trkpt lat="48.09951" lon="6.75712">
        <ele>717</ele>
        <time>2014-10-26T08:43:33Z</time>
      </trkpt>
      <trkpt lat="48.09946" lon="6.75705">
        <ele>717</ele>
        <time>2014-10-26T08:43:37Z</time>
      </trkpt>
      <trkpt lat="48.09935" lon="6.75697">
        <ele>718</ele>
        <time>2014-10-26T08:43:43Z</time>
      </trkpt>
      <trkpt lat="48.09926" lon="6.75668">
        <ele>718</ele>
        <time>2014-10-26T08:43:54Z</time>
      </trkpt>
      <trkpt lat="48.0992" lon="6.75653">
        <ele>715</ele>
        <time>2014-10-26T08:44:02Z</time>
      </trkpt>
      <trkpt lat="48.09916" lon="6.75645">
        <ele>718</ele>
        <time>2014-10-26T08:44:12Z</time>
      </trkpt>
      <trkpt lat="48.09915" lon="6.75641">
        <ele>718</ele>
        <time>2014-10-26T08:44:16Z</time>
      </trkpt>
      <trkpt lat="48.09903" lon="6.75625">
        <ele>718</ele>
        <time>2014-10-26T08:44:29Z</time>
      </trkpt>
      <trkpt lat="48.09896" lon="6.75622">
        <ele>718</ele>
        <time>2014-10-26T08:44:42Z</time>
      </trkpt>
      <trkpt lat="48.09886" lon="6.75622">
        <ele>718</ele>
        <time>2014-10-26T08:44:52Z</time>
      </trkpt>
      <trkpt lat="48.09879" lon="6.75623">
        <ele>719</ele>
        <time>2014-10-26T08:44:59Z</time>
      </trkpt>
      <trkpt lat="48.09868" lon="6.75628">
        <ele>719</ele>
        <time>2014-10-26T08:45:10Z</time>
      </trkpt>
      <trkpt lat="48.09863" lon="6.7563">
        <ele>719</ele>
        <time>2014-10-26T08:45:15Z</time>
      </trkpt>
      <trkpt lat="48.09858" lon="6.75632">
        <ele>720</ele>
        <time>2014-10-26T08:45:21Z</time>
      </trkpt>
      <trkpt lat="48.09853" lon="6.75635">
        <ele>720</ele>
        <time>2014-10-26T08:45:25Z</time>
      </trkpt>
      <trkpt lat="48.0984" lon="6.75642">
        <ele>721</ele>
        <time>2014-10-26T08:45:30Z</time>
      </trkpt>
      <trkpt lat="48.09847" lon="6.75671">
        <ele>725</ele>
        <time>2014-10-26T08:45:40Z</time>
      </trkpt>
      <trkpt lat="48.09847" lon="6.75672">
        <ele>725</ele>
        <time>2014-10-26T08:45:42Z</time>
      </trkpt>
      <trkpt lat="48.09799" lon="6.75653">
        <ele>719</ele>
        <time>2014-10-26T08:45:53Z</time>
      </trkpt>
      <trkpt lat="48.09783" lon="6.75649">
        <ele>718</ele>
        <time>2014-10-26T08:46:16Z</time>
      </trkpt>
      <trkpt lat="48.09781" lon="6.75649">
        <ele>717</ele>
        <time>2014-10-26T08:46:20Z</time>
      </trkpt>
      <trkpt lat="48.09775" lon="6.75634">
        <ele>717</ele>
        <time>2014-10-26T08:46:26Z</time>
      </trkpt>
      <trkpt lat="48.09765" lon="6.75627">
        <ele>717</ele>
        <time>2014-10-26T08:46:32Z</time>
      </trkpt>
      <trkpt lat="48.0975" lon="6.75623">
        <ele>717</ele>
        <time>2014-10-26T08:46:37Z</time>
      </trkpt>
      <trkpt lat="48.09703" lon="6.75598">
        <ele>715</ele>
        <time>2014-10-26T08:46:49Z</time>
      </trkpt>
      <trkpt lat="48.09673" lon="6.75587">
        <ele>716</ele>
        <time>2014-10-26T08:46:58Z</time>
      </trkpt>
      <trkpt lat="48.09654" lon="6.75584">
        <ele>715</ele>
        <time>2014-10-26T08:47:09Z</time>
      </trkpt>
      <trkpt lat="48.09635" lon="6.75575">
        <ele>718</ele>
        <time>2014-10-26T08:47:20Z</time>
      </trkpt>
      <trkpt lat="48.09634" lon="6.75573">
        <ele>718</ele>
        <time>2014-10-26T08:47:21Z</time>
      </trkpt>
      <trkpt lat="48.09626" lon="6.75566">
        <ele>718</ele>
        <time>2014-10-26T08:47:24Z</time>
      </trkpt>
      <trkpt lat="48.09608" lon="6.75532">
        <ele>718</ele>
        <time>2014-10-26T08:47:33Z</time>
      </trkpt>
      <trkpt lat="48.09607" lon="6.75473">
        <ele>717</ele>
        <time>2014-10-26T08:47:48Z</time>
      </trkpt>
      <trkpt lat="48.09624" lon="6.75426">
        <ele>718</ele>
        <time>2014-10-26T08:48:00Z</time>
      </trkpt>
      <trkpt lat="48.09638" lon="6.75361">
        <ele>720</ele>
        <time>2014-10-26T08:48:15Z</time>
      </trkpt>
      <trkpt lat="48.09656" lon="6.7531">
        <ele>723</ele>
        <time>2014-10-26T08:48:29Z</time>
      </trkpt>
      <trkpt lat="48.09664" lon="6.75266">
        <ele>725</ele>
        <time>2014-10-26T08:48:42Z</time>
      </trkpt>
      <trkpt lat="48.0967" lon="6.75219">
        <ele>737</ele>
        <time>2014-10-26T08:48:55Z</time>
      </trkpt>
      <trkpt lat="48.09671" lon="6.75214">
        <ele>738</ele>
        <time>2014-10-26T08:48:57Z</time>
      </trkpt>
      <trkpt lat="48.09678" lon="6.75207">
        <ele>739</ele>
        <time>2014-10-26T08:49:01Z</time>
      </trkpt>
      <trkpt lat="48.09676" lon="6.75174">
        <ele>737</ele>
        <time>2014-10-26T08:49:13Z</time>
      </trkpt>
      <trkpt lat="48.09675" lon="6.75128">
        <ele>745</ele>
        <time>2014-10-26T08:49:29Z</time>
      </trkpt>
      <trkpt lat="48.09677" lon="6.75103">
        <ele>747</ele>
        <time>2014-10-26T08:49:40Z</time>
      </trkpt>
      <trkpt lat="48.09679" lon="6.75076">
        <ele>750</ele>
        <time>2014-10-26T08:49:52Z</time>
      </trkpt>
      <trkpt lat="48.09679" lon="6.75072">
        <ele>751</ele>
        <time>2014-10-26T08:49:54Z</time>
      </trkpt>
      <trkpt lat="48.09683" lon="6.7505">
        <ele>754</ele>
        <time>2014-10-26T08:50:05Z</time>
      </trkpt>
      <trkpt lat="48.09683" lon="6.75047">
        <ele>754</ele>
        <time>2014-10-26T08:50:07Z</time>
      </trkpt>
      <trkpt lat="48.09686" lon="6.75036">
        <ele>755</ele>
        <time>2014-10-26T08:50:13Z</time>
      </trkpt>
      <trkpt lat="48.09687" lon="6.7503">
        <ele>756</ele>
        <time>2014-10-26T08:50:16Z</time>
      </trkpt>
      <trkpt lat="48.09695" lon="6.75013">
        <ele>757</ele>
        <time>2014-10-26T08:50:26Z</time>
      </trkpt>
      <trkpt lat="48.09704" lon="6.74989">
        <ele>761</ele>
        <time>2014-10-26T08:50:38Z</time>
      </trkpt>
      <trkpt lat="48.09708" lon="6.74977">
        <ele>761</ele>
        <time>2014-10-26T08:50:43Z</time>
      </trkpt>
      <trkpt lat="48.09715" lon="6.74956">
        <ele>762</ele>
        <time>2014-10-26T08:50:52Z</time>
      </trkpt>
      <trkpt lat="48.09721" lon="6.74929">
        <ele>762</ele>
        <time>2014-10-26T08:51:01Z</time>
      </trkpt>
      <trkpt lat="48.09731" lon="6.74904">
        <ele>764</ele>
        <time>2014-10-26T08:51:12Z</time>
      </trkpt>
      <trkpt lat="48.09732" lon="6.74901">
        <ele>764</ele>
        <time>2014-10-26T08:51:14Z</time>
      </trkpt>
      <trkpt lat="48.09739" lon="6.74895">
        <ele>763</ele>
        <time>2014-10-26T08:51:19Z</time>
      </trkpt>
      <trkpt lat="48.09746" lon="6.74875">
        <ele>763</ele>
        <time>2014-10-26T08:51:28Z</time>
      </trkpt>
      <trkpt lat="48.09746" lon="6.74868">
        <ele>763</ele>
        <time>2014-10-26T08:51:32Z</time>
      </trkpt>
      <trkpt lat="48.09766" lon="6.74835">
        <ele>760</ele>
        <time>2014-10-26T08:51:45Z</time>
      </trkpt>
      <trkpt lat="48.09769" lon="6.74828">
        <ele>758</ele>
        <time>2014-10-26T08:51:48Z</time>
      </trkpt>
      <trkpt lat="48.0977" lon="6.74823">
        <ele>758</ele>
        <time>2014-10-26T08:52:08Z</time>
      </trkpt>
      <trkpt lat="48.09767" lon="6.74817">
        <ele>758</ele>
        <time>2014-10-26T08:52:27Z</time>
      </trkpt>
      <trkpt lat="48.09764" lon="6.74836">
        <ele>760</ele>
        <time>2014-10-26T08:52:40Z</time>
      </trkpt>
      <trkpt lat="48.09751" lon="6.74855">
        <ele>761</ele>
        <time>2014-10-26T08:52:52Z</time>
      </trkpt>
      <trkpt lat="48.09747" lon="6.74844">
        <ele>762</ele>
        <time>2014-10-26T08:52:59Z</time>
      </trkpt>
      <trkpt lat="48.09739" lon="6.7483">
        <ele>762</ele>
        <time>2014-10-26T08:53:08Z</time>
      </trkpt>
      <trkpt lat="48.09732" lon="6.74824">
        <ele>763</ele>
        <time>2014-10-26T08:53:13Z</time>
      </trkpt>
      <trkpt lat="48.09717" lon="6.74805">
        <ele>765</ele>
        <time>2014-10-26T08:53:23Z</time>
      </trkpt>
      <trkpt lat="48.09704" lon="6.7477">
        <ele>767</ele>
        <time>2014-10-26T08:53:35Z</time>
      </trkpt>
      <trkpt lat="48.09703" lon="6.74752">
        <ele>767</ele>
        <time>2014-10-26T08:53:42Z</time>
      </trkpt>
      <trkpt lat="48.09706" lon="6.74719">
        <ele>767</ele>
        <time>2014-10-26T08:53:55Z</time>
      </trkpt>
      <trkpt lat="48.09703" lon="6.7471">
        <ele>767</ele>
        <time>2014-10-26T08:53:59Z</time>
      </trkpt>
      <trkpt lat="48.09687" lon="6.74686">
        <ele>768</ele>
        <time>2014-10-26T08:54:10Z</time>
      </trkpt>
      <trkpt lat="48.09673" lon="6.74654">
        <ele>769</ele>
        <time>2014-10-26T08:54:23Z</time>
      </trkpt>
      <trkpt lat="48.0966" lon="6.74622">
        <ele>773</ele>
        <time>2014-10-26T08:54:36Z</time>
      </trkpt>
      <trkpt lat="48.09652" lon="6.74577">
        <ele>772</ele>
        <time>2014-10-26T08:54:48Z</time>
      </trkpt>
      <trkpt lat="48.09641" lon="6.74544">
        <ele>773</ele>
        <time>2014-10-26T08:54:58Z</time>
      </trkpt>
      <trkpt lat="48.09631" lon="6.74506">
        <ele>773</ele>
        <time>2014-10-26T08:55:08Z</time>
      </trkpt>
      <trkpt lat="48.09615" lon="6.74453">
        <ele>773</ele>
        <time>2014-10-26T08:55:20Z</time>
      </trkpt>
      <trkpt lat="48.09605" lon="6.7441">
        <ele>775</ele>
        <time>2014-10-26T08:55:31Z</time>
      </trkpt>
      <trkpt lat="48.09594" lon="6.74374">
        <ele>774</ele>
        <time>2014-10-26T08:55:40Z</time>
      </trkpt>
      <trkpt lat="48.09579" lon="6.74317">
        <ele>778</ele>
        <time>2014-10-26T08:55:50Z</time>
      </trkpt>
      <trkpt lat="48.09561" lon="6.7429">
        <ele>778</ele>
        <time>2014-10-26T08:55:56Z</time>
      </trkpt>
      <trkpt lat="48.09559" lon="6.74249">
        <ele>780</ele>
        <time>2014-10-26T08:56:03Z</time>
      </trkpt>
      <trkpt lat="48.09561" lon="6.74244">
        <ele>780</ele>
        <time>2014-10-26T08:56:04Z</time>
      </trkpt>
      <trkpt lat="48.0958" lon="6.7417">
        <ele>780</ele>
        <time>2014-10-26T08:56:17Z</time>
      </trkpt>
      <trkpt lat="48.09589" lon="6.74157">
        <ele>778</ele>
        <time>2014-10-26T08:56:20Z</time>
      </trkpt>
      <trkpt lat="48.0964" lon="6.74124">
        <ele>774</ele>
        <time>2014-10-26T08:56:35Z</time>
      </trkpt>
      <trkpt lat="48.09666" lon="6.74107">
        <ele>774</ele>
        <time>2014-10-26T08:56:44Z</time>
      </trkpt>
      <trkpt lat="48.09694" lon="6.7409">
        <ele>767</ele>
        <time>2014-10-26T08:56:54Z</time>
      </trkpt>
      <trkpt lat="48.09721" lon="6.74067">
        <ele>772</ele>
        <time>2014-10-26T08:57:04Z</time>
      </trkpt>
      <trkpt lat="48.09738" lon="6.74049">
        <ele>773</ele>
        <time>2014-10-26T08:57:11Z</time>
      </trkpt>
      <trkpt lat="48.09781" lon="6.73987">
        <ele>772</ele>
        <time>2014-10-26T08:57:25Z</time>
      </trkpt>
      <trkpt lat="48.0981" lon="6.73942">
        <ele>771</ele>
        <time>2014-10-26T08:57:35Z</time>
      </trkpt>
      <trkpt lat="48.09822" lon="6.7391">
        <ele>770</ele>
        <time>2014-10-26T08:57:47Z</time>
      </trkpt>
      <trkpt lat="48.09828" lon="6.739">
        <ele>770</ele>
        <time>2014-10-26T08:57:53Z</time>
      </trkpt>
      <trkpt lat="48.09829" lon="6.73897">
        <ele>770</ele>
        <time>2014-10-26T08:57:55Z</time>
      </trkpt>
      <trkpt lat="48.09831" lon="6.73886">
        <ele>770</ele>
        <time>2014-10-26T08:58:00Z</time>
      </trkpt>
      <trkpt lat="48.09826" lon="6.73842">
        <ele>769</ele>
        <time>2014-10-26T08:58:12Z</time>
      </trkpt>
      <trkpt lat="48.09824" lon="6.7381">
        <ele>768</ele>
        <time>2014-10-26T08:58:17Z</time>
      </trkpt>
      <trkpt lat="48.09832" lon="6.73738">
        <ele>765</ele>
        <time>2014-10-26T08:58:26Z</time>
      </trkpt>
      <trkpt lat="48.09836" lon="6.73723">
        <ele>763</ele>
        <time>2014-10-26T08:58:28Z</time>
      </trkpt>
      <trkpt lat="48.09847" lon="6.73693">
        <ele>762</ele>
        <time>2014-10-26T08:58:36Z</time>
      </trkpt>
      <trkpt lat="48.09871" lon="6.73686">
        <ele>762</ele>
        <time>2014-10-26T08:58:47Z</time>
      </trkpt>
      <trkpt lat="48.09896" lon="6.73682">
        <ele>761</ele>
        <time>2014-10-26T08:58:57Z</time>
      </trkpt>
      <trkpt lat="48.09912" lon="6.73678">
        <ele>761</ele>
        <time>2014-10-26T08:59:05Z</time>
      </trkpt>
      <trkpt lat="48.09927" lon="6.73675">
        <ele>760</ele>
        <time>2014-10-26T08:59:10Z</time>
      </trkpt>
      <trkpt lat="48.09964" lon="6.73668">
        <ele>759</ele>
        <time>2014-10-26T08:59:21Z</time>
      </trkpt>
      <trkpt lat="48.09978" lon="6.73664">
        <ele>760</ele>
        <time>2014-10-26T08:59:26Z</time>
      </trkpt>
      <trkpt lat="48.09989" lon="6.73656">
        <ele>759</ele>
        <time>2014-10-26T08:59:30Z</time>
      </trkpt>
      <trkpt lat="48.09994" lon="6.73646">
        <ele>760</ele>
        <time>2014-10-26T08:59:34Z</time>
      </trkpt>
      <trkpt lat="48.10031" lon="6.73638">
        <ele>756</ele>
        <time>2014-10-26T08:59:44Z</time>
      </trkpt>
      <trkpt lat="48.10048" lon="6.73639">
        <ele>756</ele>
        <time>2014-10-26T08:59:49Z</time>
      </trkpt>
      <trkpt lat="48.10076" lon="6.73618">
        <ele>755</ele>
        <time>2014-10-26T08:59:58Z</time>
      </trkpt>
      <trkpt lat="48.10083" lon="6.73611">
        <ele>754</ele>
        <time>2014-10-26T09:00:00Z</time>
      </trkpt>
      <trkpt lat="48.10091" lon="6.73604">
        <ele>752</ele>
        <time>2014-10-26T09:00:02Z</time>
      </trkpt>
      <trkpt lat="48.10101" lon="6.73599">
        <ele>752</ele>
        <time>2014-10-26T09:00:04Z</time>
      </trkpt>
      <trkpt lat="48.10125" lon="6.73591">
        <ele>751</ele>
        <time>2014-10-26T09:00:08Z</time>
      </trkpt>
      <trkpt lat="48.10148" lon="6.73564">
        <ele>750</ele>
        <time>2014-10-26T09:00:14Z</time>
      </trkpt>
      <trkpt lat="48.10161" lon="6.73516">
        <ele>749</ele>
        <time>2014-10-26T09:00:20Z</time>
      </trkpt>
      <trkpt lat="48.10183" lon="6.73429">
        <ele>745</ele>
        <time>2014-10-26T09:00:29Z</time>
      </trkpt>
      <trkpt lat="48.10215" lon="6.73367">
        <ele>740</ele>
        <time>2014-10-26T09:00:39Z</time>
      </trkpt>
      <trkpt lat="48.10219" lon="6.73368">
        <ele>740</ele>
        <time>2014-10-26T09:00:41Z</time>
      </trkpt>
      <trkpt lat="48.1023" lon="6.73373">
        <ele>740</ele>
        <time>2014-10-26T09:00:50Z</time>
      </trkpt>
      <trkpt lat="48.10231" lon="6.73366">
        <ele>740</ele>
        <time>2014-10-26T09:00:54Z</time>
      </trkpt>
      <trkpt lat="48.10241" lon="6.73314">
        <ele>736</ele>
        <time>2014-10-26T09:01:06Z</time>
      </trkpt>
      <trkpt lat="48.10245" lon="6.73274">
        <ele>734</ele>
        <time>2014-10-26T09:01:17Z</time>
      </trkpt>
      <trkpt lat="48.10246" lon="6.73266">
        <ele>733</ele>
        <time>2014-10-26T09:01:22Z</time>
      </trkpt>
      <trkpt lat="48.10254" lon="6.73254">
        <ele>731</ele>
        <time>2014-10-26T09:01:28Z</time>
      </trkpt>
      <trkpt lat="48.10252" lon="6.73261">
        <ele>731</ele>
        <time>2014-10-26T09:01:35Z</time>
      </trkpt>
      <trkpt lat="48.10251" lon="6.73278">
        <ele>732</ele>
        <time>2014-10-26T09:01:39Z</time>
      </trkpt>
      <trkpt lat="48.10254" lon="6.733">
        <ele>733</ele>
        <time>2014-10-26T09:01:45Z</time>
      </trkpt>
      <trkpt lat="48.1026" lon="6.73312">
        <ele>734</ele>
        <time>2014-10-26T09:01:49Z</time>
      </trkpt>
      <trkpt lat="48.10268" lon="6.73333">
        <ele>734</ele>
        <time>2014-10-26T09:01:57Z</time>
      </trkpt>
      <trkpt lat="48.10269" lon="6.73347">
        <ele>736</ele>
        <time>2014-10-26T09:02:03Z</time>
      </trkpt>
      <trkpt lat="48.10269" lon="6.73372">
        <ele>736</ele>
        <time>2014-10-26T09:02:15Z</time>
      </trkpt>
      <trkpt lat="48.10261" lon="6.73379">
        <ele>737</ele>
        <time>2014-10-26T09:02:42Z</time>
      </trkpt>
      <trkpt lat="48.10261" lon="6.73379">
        <ele>737</ele>
        <time>2014-10-26T09:02:46Z</time>
      </trkpt>
      <trkpt lat="48.10271" lon="6.7338">
        <ele>737</ele>
        <time>2014-10-26T09:02:51Z</time>
      </trkpt>
      <trkpt lat="48.10282" lon="6.73383">
        <ele>736</ele>
        <time>2014-10-26T09:02:55Z</time>
      </trkpt>
      <trkpt lat="48.10301" lon="6.73384">
        <ele>736</ele>
        <time>2014-10-26T09:03:02Z</time>
      </trkpt>
      <trkpt lat="48.10335" lon="6.73393">
        <ele>735</ele>
        <time>2014-10-26T09:03:15Z</time>
      </trkpt>
      <trkpt lat="48.10356" lon="6.73398">
        <ele>735</ele>
        <time>2014-10-26T09:03:28Z</time>
      </trkpt>
      <trkpt lat="48.10385" lon="6.73393">
        <ele>736</ele>
        <time>2014-10-26T09:03:43Z</time>
      </trkpt>
      <trkpt lat="48.10388" lon="6.73389">
        <ele>736</ele>
        <time>2014-10-26T09:03:46Z</time>
      </trkpt>
      <trkpt lat="48.10393" lon="6.73388">
        <ele>736</ele>
        <time>2014-10-26T09:03:49Z</time>
      </trkpt>
      <trkpt lat="48.10398" lon="6.73387">
        <ele>736</ele>
        <time>2014-10-26T09:03:53Z</time>
      </trkpt>
      <trkpt lat="48.10416" lon="6.73384">
        <ele>736</ele>
        <time>2014-10-26T09:04:01Z</time>
      </trkpt>
      <trkpt lat="48.10435" lon="6.73377">
        <ele>738</ele>
        <time>2014-10-26T09:04:12Z</time>
      </trkpt>
      <trkpt lat="48.10436" lon="6.73361">
        <ele>737</ele>
        <time>2014-10-26T09:04:22Z</time>
      </trkpt>
      <trkpt lat="48.10436" lon="6.73361">
        <ele>737</ele>
        <time>2014-10-26T09:04:23Z</time>
      </trkpt>
      <trkpt lat="48.10446" lon="6.73371">
        <ele>738</ele>
        <time>2014-10-26T09:04:28Z</time>
      </trkpt>
      <trkpt lat="48.10447" lon="6.73377">
        <ele>738</ele>
        <time>2014-10-26T09:04:31Z</time>
      </trkpt>
      <trkpt lat="48.10445" lon="6.7338">
        <ele>738</ele>
        <time>2014-10-26T09:04:34Z</time>
      </trkpt>
      <trkpt lat="48.10445" lon="6.73381">
        <ele>738</ele>
        <time>2014-10-26T09:04:38Z</time>
      </trkpt>
      <trkpt lat="48.10451" lon="6.73366">
        <ele>737</ele>
        <time>2014-10-26T09:04:48Z</time>
      </trkpt>
      <trkpt lat="48.1044" lon="6.73368">
        <ele>737</ele>
        <time>2014-10-26T09:04:58Z</time>
      </trkpt>
      <trkpt lat="48.10421" lon="6.73368">
        <ele>737</ele>
        <time>2014-10-26T09:05:07Z</time>
      </trkpt>
      <trkpt lat="48.10412" lon="6.73369">
        <ele>735</ele>
        <time>2014-10-26T09:05:10Z</time>
      </trkpt>
      <trkpt lat="48.10399" lon="6.73372">
        <ele>735</ele>
        <time>2014-10-26T09:05:14Z</time>
      </trkpt>
      <trkpt lat="48.10389" lon="6.7338">
        <ele>736</ele>
        <time>2014-10-26T09:05:18Z</time>
      </trkpt>
      <trkpt lat="48.10362" lon="6.73396">
        <ele>735</ele>
        <time>2014-10-26T09:05:29Z</time>
      </trkpt>
      <trkpt lat="48.10343" lon="6.73392">
        <ele>735</ele>
        <time>2014-10-26T09:05:35Z</time>
      </trkpt>
      <trkpt lat="48.10307" lon="6.73379">
        <ele>735</ele>
        <time>2014-10-26T09:05:47Z</time>
      </trkpt>
      <trkpt lat="48.10295" lon="6.73379">
        <ele>736</ele>
        <time>2014-10-26T09:05:53Z</time>
      </trkpt>
      <trkpt lat="48.10289" lon="6.73386">
        <ele>736</ele>
        <time>2014-10-26T09:05:57Z</time>
      </trkpt>
      <trkpt lat="48.10265" lon="6.73428">
        <ele>741</ele>
        <time>2014-10-26T09:06:08Z</time>
      </trkpt>
      <trkpt lat="48.10257" lon="6.73485">
        <ele>745</ele>
        <time>2014-10-26T09:06:20Z</time>
      </trkpt>
      <trkpt lat="48.10256" lon="6.73531">
        <ele>747</ele>
        <time>2014-10-26T09:06:29Z</time>
      </trkpt>
      <trkpt lat="48.10242" lon="6.73559">
        <ele>750</ele>
        <time>2014-10-26T09:06:36Z</time>
      </trkpt>
      <trkpt lat="48.1021" lon="6.73579">
        <ele>750</ele>
        <time>2014-10-26T09:06:44Z</time>
      </trkpt>
      <trkpt lat="48.10205" lon="6.73584">
        <ele>750</ele>
        <time>2014-10-26T09:06:46Z</time>
      </trkpt>
      <trkpt lat="48.10174" lon="6.73601">
        <ele>750</ele>
        <time>2014-10-26T09:06:55Z</time>
      </trkpt>
      <trkpt lat="48.10156" lon="6.73614">
        <ele>751</ele>
        <time>2014-10-26T09:07:01Z</time>
      </trkpt>
      <trkpt lat="48.10139" lon="6.7363">
        <ele>752</ele>
        <time>2014-10-26T09:07:08Z</time>
      </trkpt>
      <trkpt lat="48.10129" lon="6.73631">
        <ele>752</ele>
        <time>2014-10-26T09:07:12Z</time>
      </trkpt>
      <trkpt lat="48.10093" lon="6.73632">
        <ele>752</ele>
        <time>2014-10-26T09:07:24Z</time>
      </trkpt>
      <trkpt lat="48.10054" lon="6.7361">
        <ele>755</ele>
        <time>2014-10-26T09:07:35Z</time>
      </trkpt>
      <trkpt lat="48.10035" lon="6.73563">
        <ele>756</ele>
        <time>2014-10-26T09:07:46Z</time>
      </trkpt>
      <trkpt lat="48.10027" lon="6.73546">
        <ele>756</ele>
        <time>2014-10-26T09:07:50Z</time>
      </trkpt>
      <trkpt lat="48.10001" lon="6.73484">
        <ele>755</ele>
        <time>2014-10-26T09:08:03Z</time>
      </trkpt>
      <trkpt lat="48.09987" lon="6.73444">
        <ele>758</ele>
        <time>2014-10-26T09:08:11Z</time>
      </trkpt>
      <trkpt lat="48.09962" lon="6.73378">
        <ele>756</ele>
        <time>2014-10-26T09:08:24Z</time>
      </trkpt>
      <trkpt lat="48.0996" lon="6.73372">
        <ele>756</ele>
        <time>2014-10-26T09:08:25Z</time>
      </trkpt>
      <trkpt lat="48.09941" lon="6.73314">
        <ele>755</ele>
        <time>2014-10-26T09:08:34Z</time>
      </trkpt>
      <trkpt lat="48.09933" lon="6.73291">
        <ele>754</ele>
        <time>2014-10-26T09:08:37Z</time>
      </trkpt>
      <trkpt lat="48.09929" lon="6.73258">
        <ele>754</ele>
        <time>2014-10-26T09:08:41Z</time>
      </trkpt>
      <trkpt lat="48.09957" lon="6.73191">
        <ele>754</ele>
        <time>2014-10-26T09:08:52Z</time>
      </trkpt>
      <trkpt lat="48.09986" lon="6.73123">
        <ele>755</ele>
        <time>2014-10-26T09:09:06Z</time>
      </trkpt>
      <trkpt lat="48.09985" lon="6.7305">
        <ele>754</ele>
        <time>2014-10-26T09:09:18Z</time>
      </trkpt>
      <trkpt lat="48.09975" lon="6.73019">
        <ele>753</ele>
        <time>2014-10-26T09:09:22Z</time>
      </trkpt>
      <trkpt lat="48.09961" lon="6.72991">
        <ele>750</ele>
        <time>2014-10-26T09:09:26Z</time>
      </trkpt>
      <trkpt lat="48.0991" lon="6.72881">
        <ele>749</ele>
        <time>2014-10-26T09:09:40Z</time>
      </trkpt>
      <trkpt lat="48.09895" lon="6.72775">
        <ele>743</ele>
        <time>2014-10-26T09:09:49Z</time>
      </trkpt>
      <trkpt lat="48.09873" lon="6.72626">
        <ele>736</ele>
        <time>2014-10-26T09:10:01Z</time>
      </trkpt>
      <trkpt lat="48.0987" lon="6.72614">
        <ele>736</ele>
        <time>2014-10-26T09:10:02Z</time>
      </trkpt>
      <trkpt lat="48.09878" lon="6.72569">
        <ele>739</ele>
        <time>2014-10-26T09:10:08Z</time>
      </trkpt>
      <trkpt lat="48.0989" lon="6.72562">
        <ele>739</ele>
        <time>2014-10-26T09:10:10Z</time>
      </trkpt>
      <trkpt lat="48.09915" lon="6.72539">
        <ele>739</ele>
        <time>2014-10-26T09:10:14Z</time>
      </trkpt>
      <trkpt lat="48.09958" lon="6.72498">
        <ele>738</ele>
        <time>2014-10-26T09:10:21Z</time>
      </trkpt>
      <trkpt lat="48.09985" lon="6.72448">
        <ele>739</ele>
        <time>2014-10-26T09:10:28Z</time>
      </trkpt>
      <trkpt lat="48.09992" lon="6.72426">
        <ele>741</ele>
        <time>2014-10-26T09:10:31Z</time>
      </trkpt>
      <trkpt lat="48.10009" lon="6.72351">
        <ele>738</ele>
        <time>2014-10-26T09:10:40Z</time>
      </trkpt>
      <trkpt lat="48.10014" lon="6.72314">
        <ele>738</ele>
        <time>2014-10-26T09:10:44Z</time>
      </trkpt>
      <trkpt lat="48.10038" lon="6.72274">
        <ele>736</ele>
        <time>2014-10-26T09:10:52Z</time>
      </trkpt>
      <trkpt lat="48.10068" lon="6.7228">
        <ele>734</ele>
        <time>2014-10-26T09:10:58Z</time>
      </trkpt>
      <trkpt lat="48.10133" lon="6.72308">
        <ele>733</ele>
        <time>2014-10-26T09:11:13Z</time>
      </trkpt>
      <trkpt lat="48.10169" lon="6.72313">
        <ele>736</ele>
        <time>2014-10-26T09:11:24Z</time>
      </trkpt>
      <trkpt lat="48.10196" lon="6.72308">
        <ele>736</ele>
        <time>2014-10-26T09:11:34Z</time>
      </trkpt>
      <trkpt lat="48.10217" lon="6.72281">
        <ele>737</ele>
        <time>2014-10-26T09:11:45Z</time>
      </trkpt>
      <trkpt lat="48.10241" lon="6.72225">
        <ele>739</ele>
        <time>2014-10-26T09:12:01Z</time>
      </trkpt>
      <trkpt lat="48.10253" lon="6.72177">
        <ele>739</ele>
        <time>2014-10-26T09:12:13Z</time>
      </trkpt>
      <trkpt lat="48.10277" lon="6.721">
        <ele>739</ele>
        <time>2014-10-26T09:12:30Z</time>
      </trkpt>
      <trkpt lat="48.10284" lon="6.72059">
        <ele>739</ele>
        <time>2014-10-26T09:12:38Z</time>
      </trkpt>
      <trkpt lat="48.10284" lon="6.72003">
        <ele>740</ele>
        <time>2014-10-26T09:12:49Z</time>
      </trkpt>
      <trkpt lat="48.10302" lon="6.71972">
        <ele>739</ele>
        <time>2014-10-26T09:12:55Z</time>
      </trkpt>
      <trkpt lat="48.10332" lon="6.71946">
        <ele>738</ele>
        <time>2014-10-26T09:13:01Z</time>
      </trkpt>
      <trkpt lat="48.10367" lon="6.71923">
        <ele>737</ele>
        <time>2014-10-26T09:13:08Z</time>
      </trkpt>
      <trkpt lat="48.1042" lon="6.71861">
        <ele>738</ele>
        <time>2014-10-26T09:13:23Z</time>
      </trkpt>
      <trkpt lat="48.10471" lon="6.71822">
        <ele>739</ele>
        <time>2014-10-26T09:13:38Z</time>
      </trkpt>
      <trkpt lat="48.10489" lon="6.7181">
        <ele>739</ele>
        <time>2014-10-26T09:13:42Z</time>
      </trkpt>
      <trkpt lat="48.10551" lon="6.71756">
        <ele>740</ele>
        <time>2014-10-26T09:13:58Z</time>
      </trkpt>
      <trkpt lat="48.10578" lon="6.71726">
        <ele>743</ele>
        <time>2014-10-26T09:14:10Z</time>
      </trkpt>
      <trkpt lat="48.10594" lon="6.71713">
        <ele>743</ele>
        <time>2014-10-26T09:14:17Z</time>
      </trkpt>
      <trkpt lat="48.10615" lon="6.71697">
        <ele>744</ele>
        <time>2014-10-26T09:14:27Z</time>
      </trkpt>
      <trkpt lat="48.10644" lon="6.71676">
        <ele>744</ele>
        <time>2014-10-26T09:14:39Z</time>
      </trkpt>
      <trkpt lat="48.10652" lon="6.71669">
        <ele>745</ele>
        <time>2014-10-26T09:14:42Z</time>
      </trkpt>
      <trkpt lat="48.10663" lon="6.71665">
        <ele>747</ele>
        <time>2014-10-26T09:14:46Z</time>
      </trkpt>
      <trkpt lat="48.10708" lon="6.71655">
        <ele>749</ele>
        <time>2014-10-26T09:14:58Z</time>
      </trkpt>
      <trkpt lat="48.10754" lon="6.71643">
        <ele>750</ele>
        <time>2014-10-26T09:15:10Z</time>
      </trkpt>
      <trkpt lat="48.10777" lon="6.71622">
        <ele>752</ele>
        <time>2014-10-26T09:15:20Z</time>
      </trkpt>
      <trkpt lat="48.10779" lon="6.7162">
        <ele>752</ele>
        <time>2014-10-26T09:15:21Z</time>
      </trkpt>
      <trkpt lat="48.10811" lon="6.7161">
        <ele>753</ele>
        <time>2014-10-26T09:15:33Z</time>
      </trkpt>
      <trkpt lat="48.10825" lon="6.71607">
        <ele>753</ele>
        <time>2014-10-26T09:15:39Z</time>
      </trkpt>
      <trkpt lat="48.10851" lon="6.71603">
        <ele>753</ele>
        <time>2014-10-26T09:15:51Z</time>
      </trkpt>
      <trkpt lat="48.10885" lon="6.71588">
        <ele>752</ele>
        <time>2014-10-26T09:16:01Z</time>
      </trkpt>
      <trkpt lat="48.10918" lon="6.71566">
        <ele>754</ele>
        <time>2014-10-26T09:16:12Z</time>
      </trkpt>
      <trkpt lat="48.10922" lon="6.71566">
        <ele>754</ele>
        <time>2014-10-26T09:16:25Z</time>
      </trkpt>
      <trkpt lat="48.10925" lon="6.71566">
        <ele>755</ele>
        <time>2014-10-26T09:16:30Z</time>
      </trkpt>
      <trkpt lat="48.10925" lon="6.71563">
        <ele>755</ele>
        <time>2014-10-26T09:16:36Z</time>
      </trkpt>
      <trkpt lat="48.1093" lon="6.71557">
        <ele>755</ele>
        <time>2014-10-26T09:16:39Z</time>
      </trkpt>
      <trkpt lat="48.10938" lon="6.71545">
        <ele>756</ele>
        <time>2014-10-26T09:16:47Z</time>
      </trkpt>
      <trkpt lat="48.10943" lon="6.71538">
        <ele>757</ele>
        <time>2014-10-26T09:16:51Z</time>
      </trkpt>
      <trkpt lat="48.10952" lon="6.71513">
        <ele>758</ele>
        <time>2014-10-26T09:16:59Z</time>
      </trkpt>
      <trkpt lat="48.10959" lon="6.71484">
        <ele>767</ele>
        <time>2014-10-26T09:17:10Z</time>
      </trkpt>
      <trkpt lat="48.10963" lon="6.71474">
        <ele>767</ele>
        <time>2014-10-26T09:17:15Z</time>
      </trkpt>
      <trkpt lat="48.10965" lon="6.71471">
        <ele>768</ele>
        <time>2014-10-26T09:17:17Z</time>
      </trkpt>
      <trkpt lat="48.10971" lon="6.71464">
        <ele>768</ele>
        <time>2014-10-26T09:17:21Z</time>
      </trkpt>
      <trkpt lat="48.10987" lon="6.71445">
        <ele>770</ele>
        <time>2014-10-26T09:17:34Z</time>
      </trkpt>
      <trkpt lat="48.10994" lon="6.71438">
        <ele>771</ele>
        <time>2014-10-26T09:17:39Z</time>
      </trkpt>
      <trkpt lat="48.10998" lon="6.7143">
        <ele>772</ele>
        <time>2014-10-26T09:17:43Z</time>
      </trkpt>
      <trkpt lat="48.11002" lon="6.71426">
        <ele>769</ele>
        <time>2014-10-26T09:17:47Z</time>
      </trkpt>
      <trkpt lat="48.11011" lon="6.71416">
        <ele>774</ele>
        <time>2014-10-26T09:17:55Z</time>
      </trkpt>
      <trkpt lat="48.11014" lon="6.71414">
        <ele>774</ele>
        <time>2014-10-26T09:17:58Z</time>
      </trkpt>
      <trkpt lat="48.11017" lon="6.71414">
        <ele>773</ele>
        <time>2014-10-26T09:18:00Z</time>
      </trkpt>
      <trkpt lat="48.11026" lon="6.71405">
        <ele>773</ele>
        <time>2014-10-26T09:18:08Z</time>
      </trkpt>
      <trkpt lat="48.11029" lon="6.71399">
        <ele>772</ele>
        <time>2014-10-26T09:18:12Z</time>
      </trkpt>
      <trkpt lat="48.11037" lon="6.71387">
        <ele>773</ele>
        <time>2014-10-26T09:18:21Z</time>
      </trkpt>
      <trkpt lat="48.11049" lon="6.71378">
        <ele>772</ele>
        <time>2014-10-26T09:18:32Z</time>
      </trkpt>
      <trkpt lat="48.1105" lon="6.71377">
        <ele>772</ele>
        <time>2014-10-26T09:18:33Z</time>
      </trkpt>
      <trkpt lat="48.11055" lon="6.71371">
        <ele>772</ele>
        <time>2014-10-26T09:18:37Z</time>
      </trkpt>
      <trkpt lat="48.11066" lon="6.71358">
        <ele>773</ele>
        <time>2014-10-26T09:18:47Z</time>
      </trkpt>
      <trkpt lat="48.11067" lon="6.71356">
        <ele>773</ele>
        <time>2014-10-26T09:18:48Z</time>
      </trkpt>
      <trkpt lat="48.11074" lon="6.71341">
        <ele>773</ele>
        <time>2014-10-26T09:18:56Z</time>
      </trkpt>
      <trkpt lat="48.11082" lon="6.71331">
        <ele>776</ele>
        <time>2014-10-26T09:19:04Z</time>
      </trkpt>
      <trkpt lat="48.11095" lon="6.71313">
        <ele>778</ele>
        <time>2014-10-26T09:19:15Z</time>
      </trkpt>
      <trkpt lat="48.11101" lon="6.71305">
        <ele>779</ele>
        <time>2014-10-26T09:19:20Z</time>
      </trkpt>
      <trkpt lat="48.11106" lon="6.71298">
        <ele>780</ele>
        <time>2014-10-26T09:19:25Z</time>
      </trkpt>
      <trkpt lat="48.11111" lon="6.71296">
        <ele>780</ele>
        <time>2014-10-26T09:19:29Z</time>
      </trkpt>
      <trkpt lat="48.11113" lon="6.71292">
        <ele>781</ele>
        <time>2014-10-26T09:19:32Z</time>
      </trkpt>
      <trkpt lat="48.11118" lon="6.71282">
        <ele>782</ele>
        <time>2014-10-26T09:19:38Z</time>
      </trkpt>
      <trkpt lat="48.11129" lon="6.71276">
        <ele>782</ele>
        <time>2014-10-26T09:19:50Z</time>
      </trkpt>
      <trkpt lat="48.1114" lon="6.71261">
        <ele>783</ele>
        <time>2014-10-26T09:20:03Z</time>
      </trkpt>
      <trkpt lat="48.11143" lon="6.71257">
        <ele>783</ele>
        <time>2014-10-26T09:20:06Z</time>
      </trkpt>
      <trkpt lat="48.11152" lon="6.71248">
        <ele>795</ele>
        <time>2014-10-26T09:20:15Z</time>
      </trkpt>
      <trkpt lat="48.11155" lon="6.7124">
        <ele>795</ele>
        <time>2014-10-26T09:20:19Z</time>
      </trkpt>
      <trkpt lat="48.11158" lon="6.71238">
        <ele>795</ele>
        <time>2014-10-26T09:20:21Z</time>
      </trkpt>
      <trkpt lat="48.1117" lon="6.71234">
        <ele>790</ele>
        <time>2014-10-26T09:20:28Z</time>
      </trkpt>
      <trkpt lat="48.11182" lon="6.71227">
        <ele>791</ele>
        <time>2014-10-26T09:20:36Z</time>
      </trkpt>
      <trkpt lat="48.11194" lon="6.71221">
        <ele>792</ele>
        <time>2014-10-26T09:20:43Z</time>
      </trkpt>
      <trkpt lat="48.11212" lon="6.71216">
        <ele>792</ele>
        <time>2014-10-26T09:20:55Z</time>
      </trkpt>
      <trkpt lat="48.11219" lon="6.7121">
        <ele>793</ele>
        <time>2014-10-26T09:21:02Z</time>
      </trkpt>
      <trkpt lat="48.11226" lon="6.71205">
        <ele>793</ele>
        <time>2014-10-26T09:21:20Z</time>
      </trkpt>
      <trkpt lat="48.11237" lon="6.71202">
        <ele>794</ele>
        <time>2014-10-26T09:21:49Z</time>
      </trkpt>
      <trkpt lat="48.11241" lon="6.71201">
        <ele>794</ele>
        <time>2014-10-26T09:21:51Z</time>
      </trkpt>
      <trkpt lat="48.1125" lon="6.71199">
        <ele>794</ele>
        <time>2014-10-26T09:21:56Z</time>
      </trkpt>
      <trkpt lat="48.11254" lon="6.71197">
        <ele>787</ele>
        <time>2014-10-26T09:21:58Z</time>
      </trkpt>
      <trkpt lat="48.11264" lon="6.71195">
        <ele>787</ele>
        <time>2014-10-26T09:22:04Z</time>
      </trkpt>
      <trkpt lat="48.11278" lon="6.71188">
        <ele>787</ele>
        <time>2014-10-26T09:22:11Z</time>
      </trkpt>
      <trkpt lat="48.1129" lon="6.71184">
        <ele>786</ele>
        <time>2014-10-26T09:22:16Z</time>
      </trkpt>
      <trkpt lat="48.11304" lon="6.7118">
        <ele>786</ele>
        <time>2014-10-26T09:22:22Z</time>
      </trkpt>
      <trkpt lat="48.11315" lon="6.71175">
        <ele>787</ele>
        <time>2014-10-26T09:22:28Z</time>
      </trkpt>
      <trkpt lat="48.11333" lon="6.71166">
        <ele>792</ele>
        <time>2014-10-26T09:22:37Z</time>
      </trkpt>
      <trkpt lat="48.11347" lon="6.71164">
        <ele>794</ele>
        <time>2014-10-26T09:22:44Z</time>
      </trkpt>
      <trkpt lat="48.11382" lon="6.71156">
        <ele>794</ele>
        <time>2014-10-26T09:22:58Z</time>
      </trkpt>
      <trkpt lat="48.11393" lon="6.71156">
        <ele>793</ele>
        <time>2014-10-26T09:23:09Z</time>
      </trkpt>
      <trkpt lat="48.11407" lon="6.7115">
        <ele>791</ele>
        <time>2014-10-26T09:23:21Z</time>
      </trkpt>
      <trkpt lat="48.11439" lon="6.71146">
        <ele>788</ele>
        <time>2014-10-26T09:23:31Z</time>
      </trkpt>
      <trkpt lat="48.11466" lon="6.71142">
        <ele>787</ele>
        <time>2014-10-26T09:23:38Z</time>
      </trkpt>
      <trkpt lat="48.11508" lon="6.71135">
        <ele>777</ele>
        <time>2014-10-26T09:23:49Z</time>
      </trkpt>
      <trkpt lat="48.11539" lon="6.71115">
        <ele>776</ele>
        <time>2014-10-26T09:23:57Z</time>
      </trkpt>
      <trkpt lat="48.11554" lon="6.71092">
        <ele>776</ele>
        <time>2014-10-26T09:24:01Z</time>
      </trkpt>
      <trkpt lat="48.11565" lon="6.71071">
        <ele>784</ele>
        <time>2014-10-26T09:24:04Z</time>
      </trkpt>
      <trkpt lat="48.11574" lon="6.71047">
        <ele>786</ele>
        <time>2014-10-26T09:24:07Z</time>
      </trkpt>
      <trkpt lat="48.11578" lon="6.71032">
        <ele>787</ele>
        <time>2014-10-26T09:24:14Z</time>
      </trkpt>
      <trkpt lat="48.11591" lon="6.71013">
        <ele>771</ele>
        <time>2014-10-26T09:24:23Z</time>
      </trkpt>
      <trkpt lat="48.11609" lon="6.70976">
        <ele>764</ele>
        <time>2014-10-26T09:24:37Z</time>
      </trkpt>
      <trkpt lat="48.11608" lon="6.7093">
        <ele>764</ele>
        <time>2014-10-26T09:24:46Z</time>
      </trkpt>
      <trkpt lat="48.11613" lon="6.7092">
        <ele>762</ele>
        <time>2014-10-26T09:24:58Z</time>
      </trkpt>
      <trkpt lat="48.11615" lon="6.70907">
        <ele>759</ele>
        <time>2014-10-26T09:25:13Z</time>
      </trkpt>
      <trkpt lat="48.11604" lon="6.70865">
        <ele>759</ele>
        <time>2014-10-26T09:25:27Z</time>
      </trkpt>
      <trkpt lat="48.11592" lon="6.70815">
        <ele>759</ele>
        <time>2014-10-26T09:25:39Z</time>
      </trkpt>
      <trkpt lat="48.11574" lon="6.70771">
        <ele>769</ele>
        <time>2014-10-26T09:25:51Z</time>
      </trkpt>
      <trkpt lat="48.1155" lon="6.70735">
        <ele>763</ele>
        <time>2014-10-26T09:26:02Z</time>
      </trkpt>
      <trkpt lat="48.11518" lon="6.70704">
        <ele>764</ele>
        <time>2014-10-26T09:26:13Z</time>
      </trkpt>
      <trkpt lat="48.11502" lon="6.7069">
        <ele>763</ele>
        <time>2014-10-26T09:26:18Z</time>
      </trkpt>
      <trkpt lat="48.11472" lon="6.70662">
        <ele>760</ele>
        <time>2014-10-26T09:26:28Z</time>
      </trkpt>
      <trkpt lat="48.1146" lon="6.70654">
        <ele>760</ele>
        <time>2014-10-26T09:26:31Z</time>
      </trkpt>
      <trkpt lat="48.11447" lon="6.70646">
        <ele>761</ele>
        <time>2014-10-26T09:26:34Z</time>
      </trkpt>
      <trkpt lat="48.11425" lon="6.70637">
        <ele>761</ele>
        <time>2014-10-26T09:26:38Z</time>
      </trkpt>
      <trkpt lat="48.11364" lon="6.70649">
        <ele>767</ele>
        <time>2014-10-26T09:26:49Z</time>
      </trkpt>
      <trkpt lat="48.11339" lon="6.70656">
        <ele>770</ele>
        <time>2014-10-26T09:26:54Z</time>
      </trkpt>
      <trkpt lat="48.11273" lon="6.70658">
        <ele>770</ele>
        <time>2014-10-26T09:27:10Z</time>
      </trkpt>
      <trkpt lat="48.11229" lon="6.70651">
        <ele>771</ele>
        <time>2014-10-26T09:27:22Z</time>
      </trkpt>
      <trkpt lat="48.11188" lon="6.70641">
        <ele>772</ele>
        <time>2014-10-26T09:27:35Z</time>
      </trkpt>
      <trkpt lat="48.11158" lon="6.7063">
        <ele>776</ele>
        <time>2014-10-26T09:27:46Z</time>
      </trkpt>
      <trkpt lat="48.11132" lon="6.70621">
        <ele>777</ele>
        <time>2014-10-26T09:27:57Z</time>
      </trkpt>
      <trkpt lat="48.11102" lon="6.70613">
        <ele>778</ele>
        <time>2014-10-26T09:28:11Z</time>
      </trkpt>
      <trkpt lat="48.11075" lon="6.70604">
        <ele>783</ele>
        <time>2014-10-26T09:28:25Z</time>
      </trkpt>
      <trkpt lat="48.11055" lon="6.70598">
        <ele>785</ele>
        <time>2014-10-26T09:28:37Z</time>
      </trkpt>
      <trkpt lat="48.11029" lon="6.70596">
        <ele>787</ele>
        <time>2014-10-26T09:28:51Z</time>
      </trkpt>
      <trkpt lat="48.11" lon="6.70599">
        <ele>788</ele>
        <time>2014-10-26T09:29:05Z</time>
      </trkpt>
      <trkpt lat="48.10969" lon="6.70613">
        <ele>790</ele>
        <time>2014-10-26T09:29:19Z</time>
      </trkpt>
      <trkpt lat="48.10944" lon="6.70634">
        <ele>790</ele>
        <time>2014-10-26T09:29:31Z</time>
      </trkpt>
      <trkpt lat="48.10938" lon="6.70642">
        <ele>791</ele>
        <time>2014-10-26T09:29:33Z</time>
      </trkpt>
      <trkpt lat="48.10925" lon="6.70673">
        <ele>795</ele>
        <time>2014-10-26T09:29:38Z</time>
      </trkpt>
      <trkpt lat="48.10919" lon="6.70696">
        <ele>799</ele>
        <time>2014-10-26T09:29:41Z</time>
      </trkpt>
      <trkpt lat="48.10911" lon="6.70743">
        <ele>792</ele>
        <time>2014-10-26T09:29:47Z</time>
      </trkpt>
      <trkpt lat="48.10907" lon="6.70793">
        <ele>786</ele>
        <time>2014-10-26T09:29:54Z</time>
      </trkpt>
      <trkpt lat="48.10905" lon="6.70811">
        <ele>787</ele>
        <time>2014-10-26T09:29:56Z</time>
      </trkpt>
      <trkpt lat="48.10889" lon="6.70875">
        <ele>783</ele>
        <time>2014-10-26T09:30:02Z</time>
      </trkpt>
      <trkpt lat="48.10872" lon="6.70925">
        <ele>781</ele>
        <time>2014-10-26T09:30:06Z</time>
      </trkpt>
      <trkpt lat="48.10864" lon="6.70952">
        <ele>780</ele>
        <time>2014-10-26T09:30:08Z</time>
      </trkpt>
      <trkpt lat="48.10831" lon="6.71073">
        <ele>771</ele>
        <time>2014-10-26T09:30:19Z</time>
      </trkpt>
      <trkpt lat="48.10802" lon="6.7113">
        <ele>769</ele>
        <time>2014-10-26T09:30:25Z</time>
      </trkpt>
      <trkpt lat="48.10753" lon="6.71187">
        <ele>769</ele>
        <time>2014-10-26T09:30:32Z</time>
      </trkpt>
      <trkpt lat="48.10736" lon="6.71203">
        <ele>758</ele>
        <time>2014-10-26T09:30:34Z</time>
      </trkpt>
      <trkpt lat="48.10672" lon="6.71255">
        <ele>755</ele>
        <time>2014-10-26T09:30:42Z</time>
      </trkpt>
      <trkpt lat="48.10648" lon="6.7127">
        <ele>752</ele>
        <time>2014-10-26T09:30:47Z</time>
      </trkpt>
      <trkpt lat="48.10645" lon="6.71271">
        <ele>752</ele>
        <time>2014-10-26T09:30:51Z</time>
      </trkpt>
      <trkpt lat="48.10645" lon="6.71272">
        <ele>752</ele>
        <time>2014-10-26T09:30:53Z</time>
      </trkpt>
      <trkpt lat="48.10641" lon="6.71278">
        <ele>752</ele>
        <time>2014-10-26T09:30:57Z</time>
      </trkpt>
      <trkpt lat="48.10634" lon="6.71282">
        <ele>752</ele>
        <time>2014-10-26T09:30:59Z</time>
      </trkpt>
      <trkpt lat="48.10609" lon="6.71294">
        <ele>751</ele>
        <time>2014-10-26T09:31:06Z</time>
      </trkpt>
      <trkpt lat="48.10571" lon="6.71329">
        <ele>747</ele>
        <time>2014-10-26T09:31:21Z</time>
      </trkpt>
      <trkpt lat="48.10507" lon="6.71375">
        <ele>747</ele>
        <time>2014-10-26T09:31:36Z</time>
      </trkpt>
      <trkpt lat="48.10492" lon="6.71384">
        <ele>742</ele>
        <time>2014-10-26T09:31:42Z</time>
      </trkpt>
      <trkpt lat="48.1049" lon="6.71388">
        <ele>742</ele>
        <time>2014-10-26T09:31:48Z</time>
      </trkpt>
      <trkpt lat="48.10502" lon="6.71377">
        <ele>747</ele>
        <time>2014-10-26T09:31:58Z</time>
      </trkpt>
      <trkpt lat="48.10506" lon="6.71373">
        <ele>747</ele>
        <time>2014-10-26T09:32:01Z</time>
      </trkpt>
      <trkpt lat="48.10539" lon="6.71351">
        <ele>747</ele>
        <time>2014-10-26T09:32:17Z</time>
      </trkpt>
      <trkpt lat="48.10581" lon="6.71318">
        <ele>747</ele>
        <time>2014-10-26T09:32:35Z</time>
      </trkpt>
      <trkpt lat="48.10611" lon="6.71287">
        <ele>751</ele>
        <time>2014-10-26T09:32:46Z</time>
      </trkpt>
      <trkpt lat="48.10633" lon="6.71256">
        <ele>751</ele>
        <time>2014-10-26T09:32:53Z</time>
      </trkpt>
      <trkpt lat="48.10669" lon="6.7121">
        <ele>752</ele>
        <time>2014-10-26T09:33:02Z</time>
      </trkpt>
      <trkpt lat="48.10698" lon="6.71175">
        <ele>752</ele>
        <time>2014-10-26T09:33:12Z</time>
      </trkpt>
      <trkpt lat="48.10721" lon="6.71136">
        <ele>748</ele>
        <time>2014-10-26T09:33:21Z</time>
      </trkpt>
      <trkpt lat="48.10737" lon="6.71078">
        <ele>745</ele>
        <time>2014-10-26T09:33:29Z</time>
      </trkpt>
      <trkpt lat="48.10744" lon="6.71058">
        <ele>743</ele>
        <time>2014-10-26T09:33:32Z</time>
      </trkpt>
      <trkpt lat="48.10755" lon="6.71005">
        <ele>749</ele>
        <time>2014-10-26T09:33:39Z</time>
      </trkpt>
      <trkpt lat="48.10759" lon="6.70979">
        <ele>751</ele>
        <time>2014-10-26T09:33:42Z</time>
      </trkpt>
      <trkpt lat="48.10763" lon="6.70942">
        <ele>750</ele>
        <time>2014-10-26T09:33:46Z</time>
      </trkpt>
      <trkpt lat="48.10769" lon="6.70891">
        <ele>747</ele>
        <time>2014-10-26T09:33:52Z</time>
      </trkpt>
      <trkpt lat="48.10772" lon="6.70868">
        <ele>747</ele>
        <time>2014-10-26T09:33:55Z</time>
      </trkpt>
      <trkpt lat="48.10778" lon="6.70839">
        <ele>747</ele>
        <time>2014-10-26T09:33:59Z</time>
      </trkpt>
      <trkpt lat="48.10783" lon="6.70773">
        <ele>746</ele>
        <time>2014-10-26T09:34:06Z</time>
      </trkpt>
      <trkpt lat="48.10781" lon="6.70731">
        <ele>743</ele>
        <time>2014-10-26T09:34:10Z</time>
      </trkpt>
      <trkpt lat="48.10782" lon="6.70684">
        <ele>742</ele>
        <time>2014-10-26T09:34:15Z</time>
      </trkpt>
      <trkpt lat="48.10788" lon="6.70639">
        <ele>740</ele>
        <time>2014-10-26T09:34:22Z</time>
      </trkpt>
      <trkpt lat="48.10795" lon="6.70604">
        <ele>741</ele>
        <time>2014-10-26T09:34:28Z</time>
      </trkpt>
      <trkpt lat="48.10808" lon="6.70543">
        <ele>737</ele>
        <time>2014-10-26T09:34:38Z</time>
      </trkpt>
      <trkpt lat="48.10814" lon="6.70525">
        <ele>737</ele>
        <time>2014-10-26T09:34:41Z</time>
      </trkpt>
      <trkpt lat="48.10823" lon="6.70506">
        <ele>739</ele>
        <time>2014-10-26T09:34:45Z</time>
      </trkpt>
      <trkpt lat="48.1086" lon="6.70452">
        <ele>743</ele>
        <time>2014-10-26T09:34:59Z</time>
      </trkpt>
      <trkpt lat="48.10884" lon="6.70427">
        <ele>744</ele>
        <time>2014-10-26T09:35:06Z</time>
      </trkpt>
      <trkpt lat="48.10943" lon="6.70381">
        <ele>739</ele>
        <time>2014-10-26T09:35:19Z</time>
      </trkpt>
      <trkpt lat="48.10954" lon="6.70373">
        <ele>739</ele>
        <time>2014-10-26T09:35:21Z</time>
      </trkpt>
      <trkpt lat="48.10967" lon="6.70368">
        <ele>738</ele>
        <time>2014-10-26T09:35:23Z</time>
      </trkpt>
      <trkpt lat="48.1102" lon="6.70362">
        <ele>736</ele>
        <time>2014-10-26T09:35:31Z</time>
      </trkpt>
      <trkpt lat="48.11044" lon="6.70362">
        <ele>736</ele>
        <time>2014-10-26T09:35:35Z</time>
      </trkpt>
      <trkpt lat="48.11121" lon="6.70371">
        <ele>732</ele>
        <time>2014-10-26T09:35:46Z</time>
      </trkpt>
      <trkpt lat="48.11137" lon="6.70375">
        <ele>731</ele>
        <time>2014-10-26T09:35:48Z</time>
      </trkpt>
      <trkpt lat="48.11159" lon="6.70389">
        <ele>732</ele>
        <time>2014-10-26T09:35:51Z</time>
      </trkpt>
      <trkpt lat="48.11196" lon="6.70396">
        <ele>731</ele>
        <time>2014-10-26T09:35:56Z</time>
      </trkpt>
      <trkpt lat="48.11208" lon="6.70397">
        <ele>731</ele>
        <time>2014-10-26T09:35:58Z</time>
      </trkpt>
      <trkpt lat="48.11279" lon="6.70432">
        <ele>736</ele>
        <time>2014-10-26T09:36:12Z</time>
      </trkpt>
      <trkpt lat="48.1134" lon="6.70455">
        <ele>737</ele>
        <time>2014-10-26T09:36:26Z</time>
      </trkpt>
      <trkpt lat="48.11355" lon="6.70459">
        <ele>737</ele>
        <time>2014-10-26T09:36:30Z</time>
      </trkpt>
      <trkpt lat="48.11388" lon="6.70465">
        <ele>737</ele>
        <time>2014-10-26T09:36:37Z</time>
      </trkpt>
      <trkpt lat="48.11408" lon="6.70467">
        <ele>737</ele>
        <time>2014-10-26T09:36:41Z</time>
      </trkpt>
      <trkpt lat="48.11434" lon="6.70468">
        <ele>735</ele>
        <time>2014-10-26T09:36:46Z</time>
      </trkpt>
      <trkpt lat="48.11455" lon="6.70475">
        <ele>734</ele>
        <time>2014-10-26T09:36:50Z</time>
      </trkpt>
      <trkpt lat="48.11488" lon="6.70493">
        <ele>734</ele>
        <time>2014-10-26T09:36:56Z</time>
      </trkpt>
      <trkpt lat="48.11564" lon="6.70535">
        <ele>735</ele>
        <time>2014-10-26T09:37:09Z</time>
      </trkpt>
      <trkpt lat="48.1163" lon="6.70577">
        <ele>731</ele>
        <time>2014-10-26T09:37:20Z</time>
      </trkpt>
      <trkpt lat="48.11659" lon="6.70601">
        <ele>733</ele>
        <time>2014-10-26T09:37:25Z</time>
      </trkpt>
      <trkpt lat="48.11676" lon="6.70621">
        <ele>729</ele>
        <time>2014-10-26T09:37:28Z</time>
      </trkpt>
      <trkpt lat="48.11685" lon="6.70637">
        <ele>729</ele>
        <time>2014-10-26T09:37:30Z</time>
      </trkpt>
      <trkpt lat="48.11696" lon="6.7066">
        <ele>729</ele>
        <time>2014-10-26T09:37:33Z</time>
      </trkpt>
      <trkpt lat="48.11738" lon="6.70694">
        <ele>725</ele>
        <time>2014-10-26T09:37:41Z</time>
      </trkpt>
      <trkpt lat="48.1178" lon="6.70678">
        <ele>715</ele>
        <time>2014-10-26T09:37:49Z</time>
      </trkpt>
      <trkpt lat="48.11783" lon="6.70664">
        <ele>720</ele>
        <time>2014-10-26T09:37:53Z</time>
      </trkpt>
      <trkpt lat="48.11784" lon="6.70658">
        <ele>720</ele>
        <time>2014-10-26T09:37:55Z</time>
      </trkpt>
      <trkpt lat="48.11786" lon="6.70642">
        <ele>720</ele>
        <time>2014-10-26T09:38:01Z</time>
      </trkpt>
      <trkpt lat="48.11785" lon="6.70633">
        <ele>720</ele>
        <time>2014-10-26T09:38:05Z</time>
      </trkpt>
      <trkpt lat="48.11796" lon="6.70601">
        <ele>720</ele>
        <time>2014-10-26T09:38:16Z</time>
      </trkpt>
      <trkpt lat="48.11826" lon="6.70546">
        <ele>720</ele>
        <time>2014-10-26T09:38:30Z</time>
      </trkpt>
      <trkpt lat="48.11856" lon="6.70479">
        <ele>717</ele>
        <time>2014-10-26T09:38:42Z</time>
      </trkpt>
      <trkpt lat="48.11875" lon="6.70457">
        <ele>716</ele>
        <time>2014-10-26T09:38:46Z</time>
      </trkpt>
      <trkpt lat="48.11893" lon="6.7044">
        <ele>716</ele>
        <time>2014-10-26T09:38:49Z</time>
      </trkpt>
      <trkpt lat="48.11922" lon="6.70404">
        <ele>715</ele>
        <time>2014-10-26T09:38:54Z</time>
      </trkpt>
      <trkpt lat="48.11976" lon="6.70324">
        <ele>715</ele>
        <time>2014-10-26T09:39:05Z</time>
      </trkpt>
      <trkpt lat="48.11993" lon="6.703">
        <ele>715</ele>
        <time>2014-10-26T09:39:09Z</time>
      </trkpt>
      <trkpt lat="48.12005" lon="6.70274">
        <ele>717</ele>
        <time>2014-10-26T09:39:13Z</time>
      </trkpt>
      <trkpt lat="48.12019" lon="6.70243">
        <ele>716</ele>
        <time>2014-10-26T09:39:18Z</time>
      </trkpt>
      <trkpt lat="48.12032" lon="6.7022">
        <ele>717</ele>
        <time>2014-10-26T09:39:22Z</time>
      </trkpt>
      <trkpt lat="48.12066" lon="6.70186">
        <ele>718</ele>
        <time>2014-10-26T09:39:29Z</time>
      </trkpt>
      <trkpt lat="48.1208" lon="6.70176">
        <ele>718</ele>
        <time>2014-10-26T09:39:32Z</time>
      </trkpt>
      <trkpt lat="48.12094" lon="6.70166">
        <ele>718</ele>
        <time>2014-10-26T09:39:35Z</time>
      </trkpt>
      <trkpt lat="48.12157" lon="6.70161">
        <ele>716</ele>
        <time>2014-10-26T09:39:45Z</time>
      </trkpt>
      <trkpt lat="48.1217" lon="6.70163">
        <ele>714</ele>
        <time>2014-10-26T09:39:47Z</time>
      </trkpt>
      <trkpt lat="48.12204" lon="6.70166">
        <ele>712</ele>
        <time>2014-10-26T09:39:52Z</time>
      </trkpt>
      <trkpt lat="48.12225" lon="6.70171">
        <ele>709</ele>
        <time>2014-10-26T09:39:55Z</time>
      </trkpt>
      <trkpt lat="48.12246" lon="6.70171">
        <ele>708</ele>
        <time>2014-10-26T09:39:58Z</time>
      </trkpt>
      <trkpt lat="48.12271" lon="6.7016">
        <ele>707</ele>
        <time>2014-10-26T09:40:02Z</time>
      </trkpt>
      <trkpt lat="48.12305" lon="6.7013">
        <ele>707</ele>
        <time>2014-10-26T09:40:08Z</time>
      </trkpt>
      <trkpt lat="48.12316" lon="6.7012">
        <ele>707</ele>
        <time>2014-10-26T09:40:10Z</time>
      </trkpt>
      <trkpt lat="48.12382" lon="6.70075">
        <ele>706</ele>
        <time>2014-10-26T09:40:20Z</time>
      </trkpt>
      <trkpt lat="48.12395" lon="6.70064">
        <ele>706</ele>
        <time>2014-10-26T09:40:22Z</time>
      </trkpt>
      <trkpt lat="48.12432" lon="6.70044">
        <ele>705</ele>
        <time>2014-10-26T09:40:27Z</time>
      </trkpt>
      <trkpt lat="48.12446" lon="6.70035">
        <ele>705</ele>
        <time>2014-10-26T09:40:29Z</time>
      </trkpt>
      <trkpt lat="48.12482" lon="6.70025">
        <ele>704</ele>
        <time>2014-10-26T09:40:34Z</time>
      </trkpt>
      <trkpt lat="48.12538" lon="6.69988">
        <ele>696</ele>
        <time>2014-10-26T09:40:43Z</time>
      </trkpt>
      <trkpt lat="48.126" lon="6.69948">
        <ele>684</ele>
        <time>2014-10-26T09:40:52Z</time>
      </trkpt>
      <trkpt lat="48.12629" lon="6.69919">
        <ele>683</ele>
        <time>2014-10-26T09:41:02Z</time>
      </trkpt>
      <trkpt lat="48.12632" lon="6.69916">
        <ele>688</ele>
        <time>2014-10-26T09:41:05Z</time>
      </trkpt>
      <trkpt lat="48.12641" lon="6.69931">
        <ele>681</ele>
        <time>2014-10-26T09:41:16Z</time>
      </trkpt>
      <trkpt lat="48.12636" lon="6.69944">
        <ele>681</ele>
        <time>2014-10-26T09:41:21Z</time>
      </trkpt>
      <trkpt lat="48.12627" lon="6.69978">
        <ele>680</ele>
        <time>2014-10-26T09:41:36Z</time>
      </trkpt>
      <trkpt lat="48.1263" lon="6.6998">
        <ele>679</ele>
        <time>2014-10-26T09:42:23Z</time>
      </trkpt>
      <trkpt lat="48.12623" lon="6.6999">
        <ele>679</ele>
        <time>2014-10-26T09:42:34Z</time>
      </trkpt>
      <trkpt lat="48.12621" lon="6.6999">
        <ele>680</ele>
        <time>2014-10-26T09:42:49Z</time>
      </trkpt>
      <trkpt lat="48.12622" lon="6.69989">
        <ele>680</ele>
        <time>2014-10-26T09:43:04Z</time>
      </trkpt>
      <trkpt lat="48.12622" lon="6.6999">
        <ele>680</ele>
        <time>2014-10-26T09:43:09Z</time>
      </trkpt>
      <trkpt lat="48.12623" lon="6.69992">
        <ele>679</ele>
        <time>2014-10-26T09:43:12Z</time>
      </trkpt>
      <trkpt lat="48.12625" lon="6.69993">
        <ele>679</ele>
        <time>2014-10-26T09:43:25Z</time>
      </trkpt>
      <trkpt lat="48.12628" lon="6.6999">
        <ele>679</ele>
        <time>2014-10-26T09:43:37Z</time>
      </trkpt>
      <trkpt lat="48.12629" lon="6.69985">
        <ele>679</ele>
        <time>2014-10-26T09:43:50Z</time>
      </trkpt>
      <trkpt lat="48.12628" lon="6.69986">
        <ele>679</ele>
        <time>2014-10-26T09:44:03Z</time>
      </trkpt>
      <trkpt lat="48.12626" lon="6.6999">
        <ele>679</ele>
        <time>2014-10-26T09:44:15Z</time>
      </trkpt>
      <trkpt lat="48.12625" lon="6.69994">
        <ele>679</ele>
        <time>2014-10-26T09:44:27Z</time>
      </trkpt>
      <trkpt lat="48.12625" lon="6.69993">
        <ele>679</ele>
        <time>2014-10-26T09:44:47Z</time>
      </trkpt>
      <trkpt lat="48.12627" lon="6.69992">
        <ele>679</ele>
        <time>2014-10-26T09:45:14Z</time>
      </trkpt>
      <trkpt lat="48.12632" lon="6.69985">
        <ele>679</ele>
        <time>2014-10-26T09:45:18Z</time>
      </trkpt>
      <trkpt lat="48.12635" lon="6.69966">
        <ele>680</ele>
        <time>2014-10-26T09:45:25Z</time>
      </trkpt>
      <trkpt lat="48.12636" lon="6.69937">
        <ele>682</ele>
        <time>2014-10-26T09:45:37Z</time>
      </trkpt>
      <trkpt lat="48.12634" lon="6.69922">
        <ele>682</ele>
        <time>2014-10-26T09:45:46Z</time>
      </trkpt>
      <trkpt lat="48.12634" lon="6.69918">
        <ele>682</ele>
        <time>2014-10-26T09:45:48Z</time>
      </trkpt>
      <trkpt lat="48.12624" lon="6.69906">
        <ele>689</ele>
        <time>2014-10-26T09:46:00Z</time>
      </trkpt>
      <trkpt lat="48.12622" lon="6.69907">
        <ele>689</ele>
        <time>2014-10-26T09:46:03Z</time>
      </trkpt>
      <trkpt lat="48.12611" lon="6.69918">
        <ele>685</ele>
        <time>2014-10-26T09:46:15Z</time>
      </trkpt>
      <trkpt lat="48.12594" lon="6.69937">
        <ele>685</ele>
        <time>2014-10-26T09:46:31Z</time>
      </trkpt>
      <trkpt lat="48.12571" lon="6.69954">
        <ele>694</ele>
        <time>2014-10-26T09:46:47Z</time>
      </trkpt>
      <trkpt lat="48.12557" lon="6.69963">
        <ele>695</ele>
        <time>2014-10-26T09:46:56Z</time>
      </trkpt>
      <trkpt lat="48.12549" lon="6.69972">
        <ele>695</ele>
        <time>2014-10-26T09:47:06Z</time>
      </trkpt>
      <trkpt lat="48.12548" lon="6.6998">
        <ele>695</ele>
        <time>2014-10-26T09:47:11Z</time>
      </trkpt>
      <trkpt lat="48.12546" lon="6.6999">
        <ele>695</ele>
        <time>2014-10-26T09:47:16Z</time>
      </trkpt>
      <trkpt lat="48.12545" lon="6.69997">
        <ele>695</ele>
        <time>2014-10-26T09:47:18Z</time>
      </trkpt>
      <trkpt lat="48.1253" lon="6.7005">
        <ele>694</ele>
        <time>2014-10-26T09:47:29Z</time>
      </trkpt>
      <trkpt lat="48.12526" lon="6.70061">
        <ele>694</ele>
        <time>2014-10-26T09:47:31Z</time>
      </trkpt>
      <trkpt lat="48.12511" lon="6.70103">
        <ele>695</ele>
        <time>2014-10-26T09:47:38Z</time>
      </trkpt>
      <trkpt lat="48.12503" lon="6.70129">
        <ele>694</ele>
        <time>2014-10-26T09:47:42Z</time>
      </trkpt>
      <trkpt lat="48.12495" lon="6.70155">
        <ele>699</ele>
        <time>2014-10-26T09:47:46Z</time>
      </trkpt>
      <trkpt lat="48.12471" lon="6.70188">
        <ele>697</ele>
        <time>2014-10-26T09:47:54Z</time>
      </trkpt>
      <trkpt lat="48.12466" lon="6.7021">
        <ele>697</ele>
        <time>2014-10-26T09:47:57Z</time>
      </trkpt>
      <trkpt lat="48.12455" lon="6.70231">
        <ele>697</ele>
        <time>2014-10-26T09:48:00Z</time>
      </trkpt>
      <trkpt lat="48.12445" lon="6.70243">
        <ele>697</ele>
        <time>2014-10-26T09:48:02Z</time>
      </trkpt>
      <trkpt lat="48.12394" lon="6.70307">
        <ele>687</ele>
        <time>2014-10-26T09:48:12Z</time>
      </trkpt>
      <trkpt lat="48.12387" lon="6.70312">
        <ele>687</ele>
        <time>2014-10-26T09:48:13Z</time>
      </trkpt>
      <trkpt lat="48.12375" lon="6.70327">
        <ele>687</ele>
        <time>2014-10-26T09:48:15Z</time>
      </trkpt>
      <trkpt lat="48.12364" lon="6.70342">
        <ele>679</ele>
        <time>2014-10-26T09:48:17Z</time>
      </trkpt>
      <trkpt lat="48.12348" lon="6.70369">
        <ele>679</ele>
        <time>2014-10-26T09:48:21Z</time>
      </trkpt>
      <trkpt lat="48.12336" lon="6.70397">
        <ele>678</ele>
        <time>2014-10-26T09:48:25Z</time>
      </trkpt>
      <trkpt lat="48.1233" lon="6.7042">
        <ele>679</ele>
        <time>2014-10-26T09:48:28Z</time>
      </trkpt>
      <trkpt lat="48.12329" lon="6.70488">
        <ele>680</ele>
        <time>2014-10-26T09:48:36Z</time>
      </trkpt>
      <trkpt lat="48.1233" lon="6.70535">
        <ele>682</ele>
        <time>2014-10-26T09:48:42Z</time>
      </trkpt>
      <trkpt lat="48.12323" lon="6.70625">
        <ele>680</ele>
        <time>2014-10-26T09:48:53Z</time>
      </trkpt>
      <trkpt lat="48.12323" lon="6.70661">
        <ele>675</ele>
        <time>2014-10-26T09:48:57Z</time>
      </trkpt>
      <trkpt lat="48.12321" lon="6.70679">
        <ele>674</ele>
        <time>2014-10-26T09:48:59Z</time>
      </trkpt>
      <trkpt lat="48.12315" lon="6.70705">
        <ele>675</ele>
        <time>2014-10-26T09:49:02Z</time>
      </trkpt>
      <trkpt lat="48.12308" lon="6.70725">
        <ele>675</ele>
        <time>2014-10-26T09:49:05Z</time>
      </trkpt>
      <trkpt lat="48.123" lon="6.70745">
        <ele>675</ele>
        <time>2014-10-26T09:49:08Z</time>
      </trkpt>
      <trkpt lat="48.12274" lon="6.70783">
        <ele>673</ele>
        <time>2014-10-26T09:49:17Z</time>
      </trkpt>
      <trkpt lat="48.12235" lon="6.70805">
        <ele>680</ele>
        <time>2014-10-26T09:49:28Z</time>
      </trkpt>
      <trkpt lat="48.12231" lon="6.70808">
        <ele>680</ele>
        <time>2014-10-26T09:49:29Z</time>
      </trkpt>
      <trkpt lat="48.12218" lon="6.70818">
        <ele>680</ele>
        <time>2014-10-26T09:49:32Z</time>
      </trkpt>
      <trkpt lat="48.1219" lon="6.70847">
        <ele>674</ele>
        <time>2014-10-26T09:49:38Z</time>
      </trkpt>
      <trkpt lat="48.1217" lon="6.70875">
        <ele>672</ele>
        <time>2014-10-26T09:49:42Z</time>
      </trkpt>
      <trkpt lat="48.12097" lon="6.70938">
        <ele>667</ele>
        <time>2014-10-26T09:49:54Z</time>
      </trkpt>
      <trkpt lat="48.12084" lon="6.70947">
        <ele>667</ele>
        <time>2014-10-26T09:49:56Z</time>
      </trkpt>
      <trkpt lat="48.12053" lon="6.70964">
        <ele>668</ele>
        <time>2014-10-26T09:50:01Z</time>
      </trkpt>
      <trkpt lat="48.12037" lon="6.70972">
        <ele>668</ele>
        <time>2014-10-26T09:50:04Z</time>
      </trkpt>
      <trkpt lat="48.12023" lon="6.70991">
        <ele>668</ele>
        <time>2014-10-26T09:50:12Z</time>
      </trkpt>
      <trkpt lat="48.12036" lon="6.71026">
        <ele>664</ele>
        <time>2014-10-26T09:50:20Z</time>
      </trkpt>
      <trkpt lat="48.1204" lon="6.71036">
        <ele>663</ele>
        <time>2014-10-26T09:50:22Z</time>
      </trkpt>
      <trkpt lat="48.12056" lon="6.71062">
        <ele>661</ele>
        <time>2014-10-26T09:50:30Z</time>
      </trkpt>
      <trkpt lat="48.12058" lon="6.71071">
        <ele>660</ele>
        <time>2014-10-26T09:50:42Z</time>
      </trkpt>
      <trkpt lat="48.12063" lon="6.71082">
        <ele>658</ele>
        <time>2014-10-26T09:51:02Z</time>
      </trkpt>
      <trkpt lat="48.12074" lon="6.71087">
        <ele>656</ele>
        <time>2014-10-26T09:51:07Z</time>
      </trkpt>
      <trkpt lat="48.121" lon="6.71113">
        <ele>650</ele>
        <time>2014-10-26T09:51:16Z</time>
      </trkpt>
      <trkpt lat="48.1212" lon="6.71132">
        <ele>650</ele>
        <time>2014-10-26T09:51:25Z</time>
      </trkpt>
      <trkpt lat="48.12123" lon="6.71133">
        <ele>650</ele>
        <time>2014-10-26T09:51:26Z</time>
      </trkpt>
      <trkpt lat="48.1217" lon="6.71153">
        <ele>643</ele>
        <time>2014-10-26T09:51:36Z</time>
      </trkpt>
      <trkpt lat="48.12206" lon="6.71165">
        <ele>639</ele>
        <time>2014-10-26T09:51:44Z</time>
      </trkpt>
      <trkpt lat="48.12212" lon="6.71173">
        <ele>641</ele>
        <time>2014-10-26T09:52:05Z</time>
      </trkpt>
      <trkpt lat="48.12212" lon="6.71177">
        <ele>641</ele>
        <time>2014-10-26T09:52:26Z</time>
      </trkpt>
      <trkpt lat="48.12203" lon="6.71177">
        <ele>642</ele>
        <time>2014-10-26T09:52:35Z</time>
      </trkpt>
      <trkpt lat="48.12201" lon="6.71176">
        <ele>642</ele>
        <time>2014-10-26T09:52:46Z</time>
      </trkpt>
      <trkpt lat="48.12203" lon="6.71177">
        <ele>642</ele>
        <time>2014-10-26T09:52:48Z</time>
      </trkpt>
      <trkpt lat="48.12206" lon="6.71187">
        <ele>642</ele>
        <time>2014-10-26T09:52:53Z</time>
      </trkpt>
      <trkpt lat="48.12213" lon="6.71204">
        <ele>642</ele>
        <time>2014-10-26T09:53:01Z</time>
      </trkpt>
      <trkpt lat="48.12216" lon="6.71223">
        <ele>642</ele>
        <time>2014-10-26T09:53:13Z</time>
      </trkpt>
      <trkpt lat="48.12213" lon="6.71234">
        <ele>642</ele>
        <time>2014-10-26T09:53:17Z</time>
      </trkpt>
      <trkpt lat="48.1221" lon="6.71243">
        <ele>643</ele>
        <time>2014-10-26T09:53:22Z</time>
      </trkpt>
      <trkpt lat="48.12208" lon="6.71247">
        <ele>643</ele>
        <time>2014-10-26T09:53:25Z</time>
      </trkpt>
      <trkpt lat="48.12205" lon="6.71255">
        <ele>646</ele>
        <time>2014-10-26T09:53:31Z</time>
      </trkpt>
      <trkpt lat="48.12199" lon="6.71273">
        <ele>647</ele>
        <time>2014-10-26T09:53:42Z</time>
      </trkpt>
      <trkpt lat="48.12194" lon="6.71289">
        <ele>647</ele>
        <time>2014-10-26T09:53:55Z</time>
      </trkpt>
      <trkpt lat="48.12186" lon="6.713">
        <ele>649</ele>
        <time>2014-10-26T09:54:07Z</time>
      </trkpt>
      <trkpt lat="48.12183" lon="6.71305">
        <ele>649</ele>
        <time>2014-10-26T09:54:12Z</time>
      </trkpt>
      <trkpt lat="48.12171" lon="6.71311">
        <ele>651</ele>
        <time>2014-10-26T09:54:22Z</time>
      </trkpt>
      <trkpt lat="48.12168" lon="6.71314">
        <ele>652</ele>
        <time>2014-10-26T09:54:25Z</time>
      </trkpt>
      <trkpt lat="48.12159" lon="6.71319">
        <ele>661</ele>
        <time>2014-10-26T09:54:30Z</time>
      </trkpt>
      <trkpt lat="48.12145" lon="6.7133">
        <ele>662</ele>
        <time>2014-10-26T09:54:42Z</time>
      </trkpt>
      <trkpt lat="48.12141" lon="6.71334">
        <ele>663</ele>
        <time>2014-10-26T09:54:46Z</time>
      </trkpt>
      <trkpt lat="48.12127" lon="6.71349">
        <ele>665</ele>
        <time>2014-10-26T09:54:58Z</time>
      </trkpt>
      <trkpt lat="48.1212" lon="6.71365">
        <ele>665</ele>
        <time>2014-10-26T09:55:07Z</time>
      </trkpt>
      <trkpt lat="48.12123" lon="6.71386">
        <ele>664</ele>
        <time>2014-10-26T09:55:29Z</time>
      </trkpt>
      <trkpt lat="48.12121" lon="6.71388">
        <ele>664</ele>
        <time>2014-10-26T09:55:34Z</time>
      </trkpt>
      <trkpt lat="48.12112" lon="6.71391">
        <ele>665</ele>
        <time>2014-10-26T09:55:44Z</time>
      </trkpt>
      <trkpt lat="48.12102" lon="6.71401">
        <ele>666</ele>
        <time>2014-10-26T09:55:56Z</time>
      </trkpt>
      <trkpt lat="48.12091" lon="6.71409">
        <ele>667</ele>
        <time>2014-10-26T09:56:11Z</time>
      </trkpt>
      <trkpt lat="48.12082" lon="6.71413">
        <ele>670</ele>
        <time>2014-10-26T09:56:20Z</time>
      </trkpt>
      <trkpt lat="48.12078" lon="6.71418">
        <ele>669</ele>
        <time>2014-10-26T09:56:30Z</time>
      </trkpt>
      <trkpt lat="48.12076" lon="6.71422">
        <ele>669</ele>
        <time>2014-10-26T09:56:50Z</time>
      </trkpt>
      <trkpt lat="48.12068" lon="6.71423">
        <ele>669</ele>
        <time>2014-10-26T09:57:00Z</time>
      </trkpt>
      <trkpt lat="48.12055" lon="6.71423">
        <ele>670</ele>
        <time>2014-10-26T09:57:12Z</time>
      </trkpt>
      <trkpt lat="48.12049" lon="6.71424">
        <ele>671</ele>
        <time>2014-10-26T09:57:17Z</time>
      </trkpt>
      <trkpt lat="48.12035" lon="6.71423">
        <ele>672</ele>
        <time>2014-10-26T09:57:27Z</time>
      </trkpt>
      <trkpt lat="48.12026" lon="6.71426">
        <ele>673</ele>
        <time>2014-10-26T09:57:38Z</time>
      </trkpt>
      <trkpt lat="48.12011" lon="6.71422">
        <ele>677</ele>
        <time>2014-10-26T09:57:47Z</time>
      </trkpt>
      <trkpt lat="48.11989" lon="6.71427">
        <ele>679</ele>
        <time>2014-10-26T09:57:59Z</time>
      </trkpt>
      <trkpt lat="48.11985" lon="6.71428">
        <ele>679</ele>
        <time>2014-10-26T09:58:05Z</time>
      </trkpt>
      <trkpt lat="48.11979" lon="6.71426">
        <ele>679</ele>
        <time>2014-10-26T09:58:14Z</time>
      </trkpt>
      <trkpt lat="48.11965" lon="6.71428">
        <ele>678</ele>
        <time>2014-10-26T09:58:27Z</time>
      </trkpt>
      <trkpt lat="48.11946" lon="6.71427">
        <ele>679</ele>
        <time>2014-10-26T09:58:41Z</time>
      </trkpt>
      <trkpt lat="48.11943" lon="6.71424">
        <ele>679</ele>
        <time>2014-10-26T09:58:49Z</time>
      </trkpt>
      <trkpt lat="48.11923" lon="6.71423">
        <ele>682</ele>
        <time>2014-10-26T09:58:59Z</time>
      </trkpt>
      <trkpt lat="48.11902" lon="6.71427">
        <ele>680</ele>
        <time>2014-10-26T09:59:11Z</time>
      </trkpt>
      <trkpt lat="48.11887" lon="6.71429">
        <ele>678</ele>
        <time>2014-10-26T09:59:19Z</time>
      </trkpt>
      <trkpt lat="48.11881" lon="6.71429">
        <ele>677</ele>
        <time>2014-10-26T09:59:23Z</time>
      </trkpt>
      <trkpt lat="48.11873" lon="6.71431">
        <ele>677</ele>
        <time>2014-10-26T09:59:28Z</time>
      </trkpt>
      <trkpt lat="48.11865" lon="6.71433">
        <ele>677</ele>
        <time>2014-10-26T09:59:39Z</time>
      </trkpt>
      <trkpt lat="48.11864" lon="6.71433">
        <ele>677</ele>
        <time>2014-10-26T09:59:57Z</time>
      </trkpt>
      <trkpt lat="48.11863" lon="6.71434">
        <ele>677</ele>
        <time>2014-10-26T10:00:09Z</time>
      </trkpt>
      <trkpt lat="48.11868" lon="6.71433">
        <ele>677</ele>
        <time>2014-10-26T10:00:22Z</time>
      </trkpt>
      <trkpt lat="48.11874" lon="6.7143">
        <ele>677</ele>
        <time>2014-10-26T10:00:34Z</time>
      </trkpt>
      <trkpt lat="48.11881" lon="6.71429">
        <ele>677</ele>
        <time>2014-10-26T10:00:47Z</time>
      </trkpt>
      <trkpt lat="48.11881" lon="6.71428">
        <ele>677</ele>
        <time>2014-10-26T10:00:51Z</time>
      </trkpt>
      <trkpt lat="48.11909" lon="6.71422">
        <ele>682</ele>
        <time>2014-10-26T10:01:05Z</time>
      </trkpt>
      <trkpt lat="48.11917" lon="6.71421">
        <ele>684</ele>
        <time>2014-10-26T10:01:09Z</time>
      </trkpt>
      <trkpt lat="48.11949" lon="6.71422">
        <ele>679</ele>
        <time>2014-10-26T10:01:20Z</time>
      </trkpt>
      <trkpt lat="48.11954" lon="6.71423">
        <ele>678</ele>
        <time>2014-10-26T10:01:22Z</time>
      </trkpt>
      <trkpt lat="48.11964" lon="6.71423">
        <ele>678</ele>
        <time>2014-10-26T10:01:26Z</time>
      </trkpt>
      <trkpt lat="48.11979" lon="6.71423">
        <ele>679</ele>
        <time>2014-10-26T10:01:36Z</time>
      </trkpt>
      <trkpt lat="48.11997" lon="6.71426">
        <ele>680</ele>
        <time>2014-10-26T10:01:48Z</time>
      </trkpt>
      <trkpt lat="48.12019" lon="6.71421">
        <ele>675</ele>
        <time>2014-10-26T10:01:59Z</time>
      </trkpt>
      <trkpt lat="48.12044" lon="6.71416">
        <ele>677</ele>
        <time>2014-10-26T10:02:11Z</time>
      </trkpt>
      <trkpt lat="48.12051" lon="6.71416">
        <ele>676</ele>
        <time>2014-10-26T10:02:25Z</time>
      </trkpt>
      <trkpt lat="48.1206" lon="6.71416">
        <ele>675</ele>
        <time>2014-10-26T10:02:35Z</time>
      </trkpt>
      <trkpt lat="48.12073" lon="6.71406">
        <ele>673</ele>
        <time>2014-10-26T10:02:59Z</time>
      </trkpt>
      <trkpt lat="48.12084" lon="6.714">
        <ele>667</ele>
        <time>2014-10-26T10:03:05Z</time>
      </trkpt>
      <trkpt lat="48.12096" lon="6.71394">
        <ele>666</ele>
        <time>2014-10-26T10:03:14Z</time>
      </trkpt>
      <trkpt lat="48.1211" lon="6.71386">
        <ele>665</ele>
        <time>2014-10-26T10:03:54Z</time>
      </trkpt>
      <trkpt lat="48.12115" lon="6.71377">
        <ele>665</ele>
        <time>2014-10-26T10:03:59Z</time>
      </trkpt>
      <trkpt lat="48.12122" lon="6.71364">
        <ele>665</ele>
        <time>2014-10-26T10:04:04Z</time>
      </trkpt>
      <trkpt lat="48.12132" lon="6.71351">
        <ele>664</ele>
        <time>2014-10-26T10:04:08Z</time>
      </trkpt>
      <trkpt lat="48.12157" lon="6.71335">
        <ele>660</ele>
        <time>2014-10-26T10:04:14Z</time>
      </trkpt>
      <trkpt lat="48.12191" lon="6.71301">
        <ele>648</ele>
        <time>2014-10-26T10:04:23Z</time>
      </trkpt>
      <trkpt lat="48.12198" lon="6.71256">
        <ele>647</ele>
        <time>2014-10-26T10:04:31Z</time>
      </trkpt>
      <trkpt lat="48.12187" lon="6.7121">
        <ele>644</ele>
        <time>2014-10-26T10:04:40Z</time>
      </trkpt>
      <trkpt lat="48.12196" lon="6.71202">
        <ele>643</ele>
        <time>2014-10-26T10:04:49Z</time>
      </trkpt>
      <trkpt lat="48.12196" lon="6.71201">
        <ele>643</ele>
        <time>2014-10-26T10:05:05Z</time>
      </trkpt>
      <trkpt lat="48.12225" lon="6.71206">
        <ele>641</ele>
        <time>2014-10-26T10:05:16Z</time>
      </trkpt>
      <trkpt lat="48.12267" lon="6.71229">
        <ele>627</ele>
        <time>2014-10-26T10:05:24Z</time>
      </trkpt>
      <trkpt lat="48.12289" lon="6.71239">
        <ele>623</ele>
        <time>2014-10-26T10:05:28Z</time>
      </trkpt>
      <trkpt lat="48.12304" lon="6.71259">
        <ele>622</ele>
        <time>2014-10-26T10:05:33Z</time>
      </trkpt>
      <trkpt lat="48.12305" lon="6.71307">
        <ele>623</ele>
        <time>2014-10-26T10:05:39Z</time>
      </trkpt>
      <trkpt lat="48.123" lon="6.7136">
        <ele>623</ele>
        <time>2014-10-26T10:05:45Z</time>
      </trkpt>
      <trkpt lat="48.12282" lon="6.71463">
        <ele>619</ele>
        <time>2014-10-26T10:05:57Z</time>
      </trkpt>
      <trkpt lat="48.12278" lon="6.71477">
        <ele>619</ele>
        <time>2014-10-26T10:05:59Z</time>
      </trkpt>
      <trkpt lat="48.12255" lon="6.71539">
        <ele>611</ele>
        <time>2014-10-26T10:06:07Z</time>
      </trkpt>
      <trkpt lat="48.12247" lon="6.71572">
        <ele>617</ele>
        <time>2014-10-26T10:06:11Z</time>
      </trkpt>
      <trkpt lat="48.1223" lon="6.71623">
        <ele>611</ele>
        <time>2014-10-26T10:06:17Z</time>
      </trkpt>
      <trkpt lat="48.12187" lon="6.71699">
        <ele>600</ele>
        <time>2014-10-26T10:06:27Z</time>
      </trkpt>
      <trkpt lat="48.12179" lon="6.71711">
        <ele>599</ele>
        <time>2014-10-26T10:06:29Z</time>
      </trkpt>
      <trkpt lat="48.12153" lon="6.71784">
        <ele>591</ele>
        <time>2014-10-26T10:06:37Z</time>
      </trkpt>
      <trkpt lat="48.1215" lon="6.71792">
        <ele>590</ele>
        <time>2014-10-26T10:06:38Z</time>
      </trkpt>
      <trkpt lat="48.12129" lon="6.71814">
        <ele>589</ele>
        <time>2014-10-26T10:06:42Z</time>
      </trkpt>
      <trkpt lat="48.12105" lon="6.71817">
        <ele>591</ele>
        <time>2014-10-26T10:06:46Z</time>
      </trkpt>
      <trkpt lat="48.12082" lon="6.71835">
        <ele>589</ele>
        <time>2014-10-26T10:06:52Z</time>
      </trkpt>
      <trkpt lat="48.12083" lon="6.7184">
        <ele>590</ele>
        <time>2014-10-26T10:06:53Z</time>
      </trkpt>
      <trkpt lat="48.1209" lon="6.71857">
        <ele>584</ele>
        <time>2014-10-26T10:06:56Z</time>
      </trkpt>
      <trkpt lat="48.12104" lon="6.71892">
        <ele>582</ele>
        <time>2014-10-26T10:07:03Z</time>
      </trkpt>
      <trkpt lat="48.12111" lon="6.7192">
        <ele>578</ele>
        <time>2014-10-26T10:07:09Z</time>
      </trkpt>
      <trkpt lat="48.12116" lon="6.71969">
        <ele>575</ele>
        <time>2014-10-26T10:07:18Z</time>
      </trkpt>
      <trkpt lat="48.12119" lon="6.72007">
        <ele>570</ele>
        <time>2014-10-26T10:07:24Z</time>
      </trkpt>
      <trkpt lat="48.12119" lon="6.72041">
        <ele>568</ele>
        <time>2014-10-26T10:07:29Z</time>
      </trkpt>
      <trkpt lat="48.12099" lon="6.72077">
        <ele>570</ele>
        <time>2014-10-26T10:07:37Z</time>
      </trkpt>
      <trkpt lat="48.12091" lon="6.72096">
        <ele>566</ele>
        <time>2014-10-26T10:07:42Z</time>
      </trkpt>
      <trkpt lat="48.12068" lon="6.72143">
        <ele>571</ele>
        <time>2014-10-26T10:07:50Z</time>
      </trkpt>
      <trkpt lat="48.12051" lon="6.7218">
        <ele>561</ele>
        <time>2014-10-26T10:07:55Z</time>
      </trkpt>
      <trkpt lat="48.12045" lon="6.722">
        <ele>561</ele>
        <time>2014-10-26T10:07:57Z</time>
      </trkpt>
      <trkpt lat="48.12014" lon="6.72264">
        <ele>551</ele>
        <time>2014-10-26T10:08:05Z</time>
      </trkpt>
      <trkpt lat="48.12007" lon="6.72276">
        <ele>550</ele>
        <time>2014-10-26T10:08:07Z</time>
      </trkpt>
      <trkpt lat="48.11996" lon="6.72289">
        <ele>557</ele>
        <time>2014-10-26T10:08:09Z</time>
      </trkpt>
      <trkpt lat="48.11975" lon="6.72311">
        <ele>555</ele>
        <time>2014-10-26T10:08:13Z</time>
      </trkpt>
      <trkpt lat="48.11955" lon="6.72329">
        <ele>556</ele>
        <time>2014-10-26T10:08:21Z</time>
      </trkpt>
      <trkpt lat="48.11946" lon="6.72345">
        <ele>548</ele>
        <time>2014-10-26T10:09:48Z</time>
      </trkpt>
      <trkpt lat="48.11943" lon="6.72346">
        <ele>549</ele>
        <time>2014-10-26T10:09:50Z</time>
      </trkpt>
      <trkpt lat="48.11924" lon="6.72368">
        <ele>548</ele>
        <time>2014-10-26T10:10:01Z</time>
      </trkpt>
      <trkpt lat="48.11892" lon="6.724">
        <ele>554</ele>
        <time>2014-10-26T10:10:14Z</time>
      </trkpt>
      <trkpt lat="48.11881" lon="6.72411">
        <ele>555</ele>
        <time>2014-10-26T10:10:19Z</time>
      </trkpt>
      <trkpt lat="48.11844" lon="6.7245">
        <ele>548</ele>
        <time>2014-10-26T10:10:36Z</time>
      </trkpt>
      <trkpt lat="48.1181" lon="6.72469">
        <ele>555</ele>
        <time>2014-10-26T10:10:49Z</time>
      </trkpt>
      <trkpt lat="48.11764" lon="6.72476">
        <ele>557</ele>
        <time>2014-10-26T10:11:04Z</time>
      </trkpt>
      <trkpt lat="48.11738" lon="6.72491">
        <ele>561</ele>
        <time>2014-10-26T10:11:17Z</time>
      </trkpt>
      <trkpt lat="48.11734" lon="6.72501">
        <ele>557</ele>
        <time>2014-10-26T10:11:22Z</time>
      </trkpt>
      <trkpt lat="48.11726" lon="6.72522">
        <ele>559</ele>
        <time>2014-10-26T10:11:34Z</time>
      </trkpt>
      <trkpt lat="48.11711" lon="6.72525">
        <ele>561</ele>
        <time>2014-10-26T10:11:47Z</time>
      </trkpt>
      <trkpt lat="48.11702" lon="6.72513">
        <ele>562</ele>
        <time>2014-10-26T10:11:54Z</time>
      </trkpt>
      <trkpt lat="48.11699" lon="6.72482">
        <ele>568</ele>
        <time>2014-10-26T10:12:05Z</time>
      </trkpt>
      <trkpt lat="48.11713" lon="6.72453">
        <ele>569</ele>
        <time>2014-10-26T10:12:17Z</time>
      </trkpt>
      <trkpt lat="48.11716" lon="6.72448">
        <ele>569</ele>
        <time>2014-10-26T10:12:19Z</time>
      </trkpt>
      <trkpt lat="48.1173" lon="6.72403">
        <ele>577</ele>
        <time>2014-10-26T10:12:35Z</time>
      </trkpt>
      <trkpt lat="48.11747" lon="6.72353">
        <ele>581</ele>
        <time>2014-10-26T10:12:52Z</time>
      </trkpt>
      <trkpt lat="48.11765" lon="6.72317">
        <ele>582</ele>
        <time>2014-10-26T10:13:06Z</time>
      </trkpt>
      <trkpt lat="48.11779" lon="6.72298">
        <ele>582</ele>
        <time>2014-10-26T10:13:16Z</time>
      </trkpt>
      <trkpt lat="48.11792" lon="6.72263">
        <ele>583</ele>
        <time>2014-10-26T10:13:30Z</time>
      </trkpt>
      <trkpt lat="48.11779" lon="6.7223">
        <ele>593</ele>
        <time>2014-10-26T10:13:43Z</time>
      </trkpt>
      <trkpt lat="48.11752" lon="6.72216">
        <ele>594</ele>
        <time>2014-10-26T10:13:55Z</time>
      </trkpt>
      <trkpt lat="48.11721" lon="6.72221">
        <ele>599</ele>
        <time>2014-10-26T10:14:09Z</time>
      </trkpt>
      <trkpt lat="48.11713" lon="6.72231">
        <ele>598</ele>
        <time>2014-10-26T10:14:15Z</time>
      </trkpt>
      <trkpt lat="48.11702" lon="6.72253">
        <ele>590</ele>
        <time>2014-10-26T10:14:26Z</time>
      </trkpt>
      <trkpt lat="48.11676" lon="6.72264">
        <ele>592</ele>
        <time>2014-10-26T10:14:38Z</time>
      </trkpt>
      <trkpt lat="48.11653" lon="6.72268">
        <ele>594</ele>
        <time>2014-10-26T10:14:48Z</time>
      </trkpt>
      <trkpt lat="48.11643" lon="6.72271">
        <ele>594</ele>
        <time>2014-10-26T10:14:53Z</time>
      </trkpt>
      <trkpt lat="48.11615" lon="6.72292">
        <ele>594</ele>
        <time>2014-10-26T10:15:07Z</time>
      </trkpt>
      <trkpt lat="48.11607" lon="6.723">
        <ele>594</ele>
        <time>2014-10-26T10:15:12Z</time>
      </trkpt>
      <trkpt lat="48.11591" lon="6.72308">
        <ele>594</ele>
        <time>2014-10-26T10:15:23Z</time>
      </trkpt>
      <trkpt lat="48.11584" lon="6.72309">
        <ele>594</ele>
        <time>2014-10-26T10:15:28Z</time>
      </trkpt>
      <trkpt lat="48.11568" lon="6.72314">
        <ele>598</ele>
        <time>2014-10-26T10:15:39Z</time>
      </trkpt>
      <trkpt lat="48.11553" lon="6.72313">
        <ele>600</ele>
        <time>2014-10-26T10:15:47Z</time>
      </trkpt>
      <trkpt lat="48.11537" lon="6.72309">
        <ele>601</ele>
        <time>2014-10-26T10:15:56Z</time>
      </trkpt>
      <trkpt lat="48.11527" lon="6.72305">
        <ele>602</ele>
        <time>2014-10-26T10:16:00Z</time>
      </trkpt>
      <trkpt lat="48.11514" lon="6.72303">
        <ele>603</ele>
        <time>2014-10-26T10:16:12Z</time>
      </trkpt>
      <trkpt lat="48.11502" lon="6.72305">
        <ele>603</ele>
        <time>2014-10-26T10:16:27Z</time>
      </trkpt>
      <trkpt lat="48.11482" lon="6.72316">
        <ele>610</ele>
        <time>2014-10-26T10:16:36Z</time>
      </trkpt>
      <trkpt lat="48.11455" lon="6.72335">
        <ele>609</ele>
        <time>2014-10-26T10:16:47Z</time>
      </trkpt>
      <trkpt lat="48.11451" lon="6.72341">
        <ele>609</ele>
        <time>2014-10-26T10:16:50Z</time>
      </trkpt>
      <trkpt lat="48.11446" lon="6.72368">
        <ele>609</ele>
        <time>2014-10-26T10:17:01Z</time>
      </trkpt>
      <trkpt lat="48.11443" lon="6.72383">
        <ele>609</ele>
        <time>2014-10-26T10:17:07Z</time>
      </trkpt>
      <trkpt lat="48.11437" lon="6.72401">
        <ele>611</ele>
        <time>2014-10-26T10:17:15Z</time>
      </trkpt>
      <trkpt lat="48.11432" lon="6.72413">
        <ele>612</ele>
        <time>2014-10-26T10:17:19Z</time>
      </trkpt>
      <trkpt lat="48.1143" lon="6.7246">
        <ele>610</ele>
        <time>2014-10-26T10:17:32Z</time>
      </trkpt>
      <trkpt lat="48.11428" lon="6.72496">
        <ele>615</ele>
        <time>2014-10-26T10:17:43Z</time>
      </trkpt>
      <trkpt lat="48.11418" lon="6.7253">
        <ele>613</ele>
        <time>2014-10-26T10:17:54Z</time>
      </trkpt>
      <trkpt lat="48.11415" lon="6.72538">
        <ele>628</ele>
        <time>2014-10-26T10:17:56Z</time>
      </trkpt>
      <trkpt lat="48.1141" lon="6.7255">
        <ele>629</ele>
        <time>2014-10-26T10:18:00Z</time>
      </trkpt>
      <trkpt lat="48.11401" lon="6.72583">
        <ele>627</ele>
        <time>2014-10-26T10:18:10Z</time>
      </trkpt>
      <trkpt lat="48.11387" lon="6.72617">
        <ele>631</ele>
        <time>2014-10-26T10:18:21Z</time>
      </trkpt>
      <trkpt lat="48.11385" lon="6.7262">
        <ele>632</ele>
        <time>2014-10-26T10:18:22Z</time>
      </trkpt>
      <trkpt lat="48.11379" lon="6.7263">
        <ele>632</ele>
        <time>2014-10-26T10:18:25Z</time>
      </trkpt>
      <trkpt lat="48.1136" lon="6.72662">
        <ele>636</ele>
        <time>2014-10-26T10:18:36Z</time>
      </trkpt>
      <trkpt lat="48.11338" lon="6.72701">
        <ele>633</ele>
        <time>2014-10-26T10:18:47Z</time>
      </trkpt>
      <trkpt lat="48.11333" lon="6.72709">
        <ele>644</ele>
        <time>2014-10-26T10:18:50Z</time>
      </trkpt>
      <trkpt lat="48.11316" lon="6.72747">
        <ele>640</ele>
        <time>2014-10-26T10:19:03Z</time>
      </trkpt>
      <trkpt lat="48.11289" lon="6.72768">
        <ele>636</ele>
        <time>2014-10-26T10:19:14Z</time>
      </trkpt>
      <trkpt lat="48.11285" lon="6.7277">
        <ele>636</ele>
        <time>2014-10-26T10:19:16Z</time>
      </trkpt>
      <trkpt lat="48.11268" lon="6.72781">
        <ele>637</ele>
        <time>2014-10-26T10:19:26Z</time>
      </trkpt>
      <trkpt lat="48.11266" lon="6.72783">
        <ele>637</ele>
        <time>2014-10-26T10:19:27Z</time>
      </trkpt>
      <trkpt lat="48.11256" lon="6.72786">
        <ele>637</ele>
        <time>2014-10-26T10:19:32Z</time>
      </trkpt>
      <trkpt lat="48.11245" lon="6.72789">
        <ele>644</ele>
        <time>2014-10-26T10:19:37Z</time>
      </trkpt>
      <trkpt lat="48.11219" lon="6.72796">
        <ele>644</ele>
        <time>2014-10-26T10:19:49Z</time>
      </trkpt>
      <trkpt lat="48.11199" lon="6.72801">
        <ele>645</ele>
        <time>2014-10-26T10:19:59Z</time>
      </trkpt>
      <trkpt lat="48.11178" lon="6.72809">
        <ele>645</ele>
        <time>2014-10-26T10:20:08Z</time>
      </trkpt>
      <trkpt lat="48.11156" lon="6.72821">
        <ele>651</ele>
        <time>2014-10-26T10:20:16Z</time>
      </trkpt>
      <trkpt lat="48.11144" lon="6.72827">
        <ele>653</ele>
        <time>2014-10-26T10:20:20Z</time>
      </trkpt>
      <trkpt lat="48.11115" lon="6.72839">
        <ele>648</ele>
        <time>2014-10-26T10:20:30Z</time>
      </trkpt>
      <trkpt lat="48.11082" lon="6.72846">
        <ele>658</ele>
        <time>2014-10-26T10:20:40Z</time>
      </trkpt>
      <trkpt lat="48.11059" lon="6.72847">
        <ele>659</ele>
        <time>2014-10-26T10:20:50Z</time>
      </trkpt>
      <trkpt lat="48.11025" lon="6.72846">
        <ele>662</ele>
        <time>2014-10-26T10:21:02Z</time>
      </trkpt>
      <trkpt lat="48.11001" lon="6.72845">
        <ele>666</ele>
        <time>2014-10-26T10:21:13Z</time>
      </trkpt>
      <trkpt lat="48.10967" lon="6.72838">
        <ele>668</ele>
        <time>2014-10-26T10:21:24Z</time>
      </trkpt>
      <trkpt lat="48.1094" lon="6.72829">
        <ele>676</ele>
        <time>2014-10-26T10:21:35Z</time>
      </trkpt>
      <trkpt lat="48.10932" lon="6.72827">
        <ele>676</ele>
        <time>2014-10-26T10:21:39Z</time>
      </trkpt>
      <trkpt lat="48.10911" lon="6.72824">
        <ele>676</ele>
        <time>2014-10-26T10:21:49Z</time>
      </trkpt>
      <trkpt lat="48.10883" lon="6.72819">
        <ele>678</ele>
        <time>2014-10-26T10:22:01Z</time>
      </trkpt>
      <trkpt lat="48.10851" lon="6.72807">
        <ele>679</ele>
        <time>2014-10-26T10:22:11Z</time>
      </trkpt>
      <trkpt lat="48.10839" lon="6.728">
        <ele>679</ele>
        <time>2014-10-26T10:22:21Z</time>
      </trkpt>
      <trkpt lat="48.10836" lon="6.728">
        <ele>680</ele>
        <time>2014-10-26T10:22:36Z</time>
      </trkpt>
      <trkpt lat="48.10828" lon="6.72797">
        <ele>680</ele>
        <time>2014-10-26T10:23:43Z</time>
      </trkpt>
      <trkpt lat="48.10803" lon="6.72821">
        <ele>679</ele>
        <time>2014-10-26T10:23:51Z</time>
      </trkpt>
      <trkpt lat="48.10789" lon="6.72861">
        <ele>674</ele>
        <time>2014-10-26T10:23:56Z</time>
      </trkpt>
      <trkpt lat="48.10778" lon="6.72884">
        <ele>673</ele>
        <time>2014-10-26T10:23:59Z</time>
      </trkpt>
      <trkpt lat="48.10762" lon="6.72913">
        <ele>673</ele>
        <time>2014-10-26T10:24:04Z</time>
      </trkpt>
      <trkpt lat="48.10749" lon="6.72954">
        <ele>678</ele>
        <time>2014-10-26T10:24:14Z</time>
      </trkpt>
      <trkpt lat="48.10742" lon="6.72974">
        <ele>679</ele>
        <time>2014-10-26T10:24:20Z</time>
      </trkpt>
      <trkpt lat="48.10747" lon="6.73001">
        <ele>679</ele>
        <time>2014-10-26T10:24:27Z</time>
      </trkpt>
      <trkpt lat="48.10747" lon="6.73011">
        <ele>682</ele>
        <time>2014-10-26T10:24:31Z</time>
      </trkpt>
      <trkpt lat="48.10754" lon="6.73053">
        <ele>680</ele>
        <time>2014-10-26T10:24:44Z</time>
      </trkpt>
      <trkpt lat="48.10759" lon="6.7307">
        <ele>683</ele>
        <time>2014-10-26T10:24:50Z</time>
      </trkpt>
      <trkpt lat="48.10768" lon="6.73089">
        <ele>686</ele>
        <time>2014-10-26T10:25:00Z</time>
      </trkpt>
      <trkpt lat="48.10776" lon="6.73108">
        <ele>685</ele>
        <time>2014-10-26T10:25:11Z</time>
      </trkpt>
      <trkpt lat="48.10782" lon="6.73122">
        <ele>685</ele>
        <time>2014-10-26T10:25:18Z</time>
      </trkpt>
      <trkpt lat="48.10785" lon="6.73131">
        <ele>685</ele>
        <time>2014-10-26T10:25:21Z</time>
      </trkpt>
      <trkpt lat="48.10793" lon="6.73155">
        <ele>685</ele>
        <time>2014-10-26T10:25:30Z</time>
      </trkpt>
      <trkpt lat="48.10803" lon="6.73193">
        <ele>687</ele>
        <time>2014-10-26T10:25:43Z</time>
      </trkpt>
      <trkpt lat="48.10823" lon="6.73223">
        <ele>686</ele>
        <time>2014-10-26T10:25:56Z</time>
      </trkpt>
      <trkpt lat="48.10827" lon="6.73228">
        <ele>686</ele>
        <time>2014-10-26T10:25:58Z</time>
      </trkpt>
      <trkpt lat="48.10847" lon="6.73256">
        <ele>680</ele>
        <time>2014-10-26T10:26:09Z</time>
      </trkpt>
      <trkpt lat="48.10851" lon="6.73293">
        <ele>677</ele>
        <time>2014-10-26T10:26:18Z</time>
      </trkpt>
      <trkpt lat="48.10846" lon="6.73326">
        <ele>679</ele>
        <time>2014-10-26T10:26:25Z</time>
      </trkpt>
      <trkpt lat="48.10823" lon="6.73364">
        <ele>684</ele>
        <time>2014-10-26T10:26:33Z</time>
      </trkpt>
      <trkpt lat="48.10814" lon="6.73371">
        <ele>685</ele>
        <time>2014-10-26T10:26:35Z</time>
      </trkpt>
      <trkpt lat="48.10801" lon="6.73384">
        <ele>685</ele>
        <time>2014-10-26T10:26:38Z</time>
      </trkpt>
      <trkpt lat="48.10774" lon="6.73411">
        <ele>688</ele>
        <time>2014-10-26T10:26:45Z</time>
      </trkpt>
      <trkpt lat="48.10758" lon="6.73426">
        <ele>687</ele>
        <time>2014-10-26T10:26:49Z</time>
      </trkpt>
      <trkpt lat="48.10741" lon="6.73441">
        <ele>694</ele>
        <time>2014-10-26T10:26:54Z</time>
      </trkpt>
      <trkpt lat="48.10736" lon="6.73451">
        <ele>694</ele>
        <time>2014-10-26T10:26:56Z</time>
      </trkpt>
      <trkpt lat="48.10706" lon="6.73503">
        <ele>689</ele>
        <time>2014-10-26T10:27:07Z</time>
      </trkpt>
      <trkpt lat="48.10689" lon="6.73525">
        <ele>691</ele>
        <time>2014-10-26T10:27:15Z</time>
      </trkpt>
      <trkpt lat="48.10685" lon="6.73534">
        <ele>690</ele>
        <time>2014-10-26T10:27:19Z</time>
      </trkpt>
      <trkpt lat="48.10662" lon="6.73568">
        <ele>699</ele>
        <time>2014-10-26T10:27:31Z</time>
      </trkpt>
      <trkpt lat="48.10636" lon="6.73596">
        <ele>694</ele>
        <time>2014-10-26T10:27:42Z</time>
      </trkpt>
      <trkpt lat="48.10621" lon="6.73614">
        <ele>694</ele>
        <time>2014-10-26T10:27:49Z</time>
      </trkpt>
      <trkpt lat="48.10616" lon="6.73623">
        <ele>694</ele>
        <time>2014-10-26T10:27:54Z</time>
      </trkpt>
      <trkpt lat="48.10598" lon="6.73651">
        <ele>693</ele>
        <time>2014-10-26T10:28:05Z</time>
      </trkpt>
      <trkpt lat="48.10594" lon="6.73656">
        <ele>693</ele>
        <time>2014-10-26T10:28:06Z</time>
      </trkpt>
      <trkpt lat="48.10582" lon="6.7367">
        <ele>693</ele>
        <time>2014-10-26T10:28:09Z</time>
      </trkpt>
      <trkpt lat="48.10554" lon="6.73716">
        <ele>698</ele>
        <time>2014-10-26T10:28:20Z</time>
      </trkpt>
      <trkpt lat="48.10542" lon="6.73733">
        <ele>699</ele>
        <time>2014-10-26T10:28:28Z</time>
      </trkpt>
      <trkpt lat="48.10542" lon="6.73761">
        <ele>700</ele>
        <time>2014-10-26T10:28:41Z</time>
      </trkpt>
      <trkpt lat="48.10539" lon="6.73767">
        <ele>701</ele>
        <time>2014-10-26T10:28:49Z</time>
      </trkpt>
      <trkpt lat="48.10539" lon="6.73769">
        <ele>701</ele>
        <time>2014-10-26T10:28:51Z</time>
      </trkpt>
      <trkpt lat="48.10538" lon="6.73774">
        <ele>701</ele>
        <time>2014-10-26T10:28:57Z</time>
      </trkpt>
      <trkpt lat="48.10537" lon="6.73781">
        <ele>701</ele>
        <time>2014-10-26T10:29:01Z</time>
      </trkpt>
      <trkpt lat="48.10531" lon="6.73796">
        <ele>702</ele>
        <time>2014-10-26T10:29:09Z</time>
      </trkpt>
      <trkpt lat="48.10528" lon="6.73801">
        <ele>703</ele>
        <time>2014-10-26T10:29:13Z</time>
      </trkpt>
      <trkpt lat="48.10522" lon="6.73818">
        <ele>705</ele>
        <time>2014-10-26T10:29:24Z</time>
      </trkpt>
      <trkpt lat="48.1052" lon="6.73824">
        <ele>706</ele>
        <time>2014-10-26T10:29:27Z</time>
      </trkpt>
      <trkpt lat="48.10511" lon="6.73858">
        <ele>707</ele>
        <time>2014-10-26T10:29:41Z</time>
      </trkpt>
      <trkpt lat="48.10485" lon="6.73894">
        <ele>714</ele>
        <time>2014-10-26T10:29:52Z</time>
      </trkpt>
      <trkpt lat="48.10462" lon="6.73931">
        <ele>712</ele>
        <time>2014-10-26T10:30:03Z</time>
      </trkpt>
      <trkpt lat="48.10447" lon="6.73949">
        <ele>712</ele>
        <time>2014-10-26T10:30:09Z</time>
      </trkpt>
      <trkpt lat="48.10439" lon="6.73956">
        <ele>712</ele>
        <time>2014-10-26T10:30:13Z</time>
      </trkpt>
      <trkpt lat="48.10428" lon="6.73968">
        <ele>711</ele>
        <time>2014-10-26T10:30:19Z</time>
      </trkpt>
      <trkpt lat="48.1042" lon="6.73978">
        <ele>711</ele>
        <time>2014-10-26T10:30:26Z</time>
      </trkpt>
      <trkpt lat="48.10408" lon="6.73986">
        <ele>714</ele>
        <time>2014-10-26T10:30:39Z</time>
      </trkpt>
      <trkpt lat="48.10408" lon="6.73984">
        <ele>714</ele>
        <time>2014-10-26T10:30:53Z</time>
      </trkpt>
      <trkpt lat="48.10405" lon="6.73992">
        <ele>714</ele>
        <time>2014-10-26T10:30:57Z</time>
      </trkpt>
      <trkpt lat="48.10375" lon="6.74019">
        <ele>708</ele>
        <time>2014-10-26T10:31:07Z</time>
      </trkpt>
      <trkpt lat="48.10369" lon="6.74023">
        <ele>708</ele>
        <time>2014-10-26T10:31:09Z</time>
      </trkpt>
      <trkpt lat="48.10355" lon="6.74031">
        <ele>708</ele>
        <time>2014-10-26T10:31:14Z</time>
      </trkpt>
      <trkpt lat="48.10351" lon="6.74032">
        <ele>708</ele>
        <time>2014-10-26T10:31:16Z</time>
      </trkpt>
      <trkpt lat="48.10326" lon="6.74058">
        <ele>706</ele>
        <time>2014-10-26T10:31:27Z</time>
      </trkpt>
      <trkpt lat="48.10306" lon="6.7408">
        <ele>706</ele>
        <time>2014-10-26T10:31:40Z</time>
      </trkpt>
      <trkpt lat="48.10305" lon="6.74084">
        <ele>703</ele>
        <time>2014-10-26T10:31:51Z</time>
      </trkpt>
      <trkpt lat="48.10305" lon="6.74085">
        <ele>703</ele>
        <time>2014-10-26T10:31:53Z</time>
      </trkpt>
      <trkpt lat="48.10305" lon="6.74095">
        <ele>703</ele>
        <time>2014-10-26T10:31:58Z</time>
      </trkpt>
      <trkpt lat="48.10303" lon="6.74102">
        <ele>703</ele>
        <time>2014-10-26T10:32:01Z</time>
      </trkpt>
      <trkpt lat="48.10296" lon="6.74111">
        <ele>702</ele>
        <time>2014-10-26T10:32:08Z</time>
      </trkpt>
      <trkpt lat="48.10287" lon="6.7413">
        <ele>702</ele>
        <time>2014-10-26T10:32:19Z</time>
      </trkpt>
      <trkpt lat="48.10281" lon="6.74143">
        <ele>702</ele>
        <time>2014-10-26T10:32:29Z</time>
      </trkpt>
      <trkpt lat="48.10277" lon="6.74153">
        <ele>702</ele>
        <time>2014-10-26T10:32:34Z</time>
      </trkpt>
      <trkpt lat="48.10275" lon="6.74171">
        <ele>703</ele>
        <time>2014-10-26T10:32:41Z</time>
      </trkpt>
      <trkpt lat="48.1027" lon="6.7418">
        <ele>703</ele>
        <time>2014-10-26T10:32:54Z</time>
      </trkpt>
      <trkpt lat="48.10268" lon="6.74186">
        <ele>703</ele>
        <time>2014-10-26T10:33:00Z</time>
      </trkpt>
      <trkpt lat="48.10258" lon="6.74196">
        <ele>704</ele>
        <time>2014-10-26T10:33:12Z</time>
      </trkpt>
      <trkpt lat="48.10251" lon="6.74215">
        <ele>705</ele>
        <time>2014-10-26T10:33:28Z</time>
      </trkpt>
      <trkpt lat="48.10247" lon="6.74229">
        <ele>707</ele>
        <time>2014-10-26T10:33:39Z</time>
      </trkpt>
      <trkpt lat="48.10244" lon="6.74238">
        <ele>707</ele>
        <time>2014-10-26T10:33:47Z</time>
      </trkpt>
      <trkpt lat="48.10242" lon="6.7424">
        <ele>707</ele>
        <time>2014-10-26T10:33:49Z</time>
      </trkpt>
      <trkpt lat="48.10236" lon="6.74253">
        <ele>711</ele>
        <time>2014-10-26T10:34:02Z</time>
      </trkpt>
      <trkpt lat="48.10228" lon="6.74267">
        <ele>713</ele>
        <time>2014-10-26T10:34:16Z</time>
      </trkpt>
      <trkpt lat="48.10224" lon="6.74279">
        <ele>715</ele>
        <time>2014-10-26T10:34:30Z</time>
      </trkpt>
      <trkpt lat="48.10221" lon="6.74291">
        <ele>716</ele>
        <time>2014-10-26T10:34:43Z</time>
      </trkpt>
      <trkpt lat="48.10215" lon="6.74303">
        <ele>717</ele>
        <time>2014-10-26T10:34:56Z</time>
      </trkpt>
      <trkpt lat="48.10204" lon="6.74318">
        <ele>718</ele>
        <time>2014-10-26T10:35:12Z</time>
      </trkpt>
      <trkpt lat="48.10203" lon="6.7432">
        <ele>718</ele>
        <time>2014-10-26T10:35:14Z</time>
      </trkpt>
      <trkpt lat="48.10205" lon="6.74323">
        <ele>718</ele>
        <time>2014-10-26T10:35:17Z</time>
      </trkpt>
      <trkpt lat="48.10208" lon="6.74328">
        <ele>718</ele>
        <time>2014-10-26T10:35:32Z</time>
      </trkpt>
      <trkpt lat="48.10208" lon="6.74328">
        <ele>718</ele>
        <time>2014-10-26T10:35:44Z</time>
      </trkpt>
      <trkpt lat="48.10208" lon="6.74327">
        <ele>718</ele>
        <time>2014-10-26T10:36:09Z</time>
      </trkpt>
      <trkpt lat="48.10207" lon="6.74328">
        <ele>718</ele>
        <time>2014-10-26T10:36:33Z</time>
      </trkpt>
      <trkpt lat="48.10207" lon="6.74329">
        <ele>718</ele>
        <time>2014-10-26T10:36:44Z</time>
      </trkpt>
      <trkpt lat="48.10207" lon="6.74331">
        <ele>718</ele>
        <time>2014-10-26T10:37:10Z</time>
      </trkpt>
      <trkpt lat="48.10207" lon="6.74331">
        <ele>718</ele>
        <time>2014-10-26T10:37:18Z</time>
      </trkpt>
      <trkpt lat="48.10208" lon="6.74329">
        <ele>718</ele>
        <time>2014-10-26T10:37:32Z</time>
      </trkpt>
      <trkpt lat="48.10209" lon="6.7433">
        <ele>718</ele>
        <time>2014-10-26T10:37:40Z</time>
      </trkpt>
      <trkpt lat="48.10231" lon="6.74359">
        <ele>720</ele>
        <time>2014-10-26T10:37:54Z</time>
      </trkpt>
      <trkpt lat="48.1026" lon="6.74404">
        <ele>718</ele>
        <time>2014-10-26T10:38:09Z</time>
      </trkpt>
      <trkpt lat="48.10263" lon="6.74409">
        <ele>718</ele>
        <time>2014-10-26T10:38:12Z</time>
      </trkpt>
      <trkpt lat="48.10281" lon="6.74413">
        <ele>717</ele>
        <time>2014-10-26T10:38:28Z</time>
      </trkpt>
      <trkpt lat="48.10304" lon="6.74407">
        <ele>716</ele>
        <time>2014-10-26T10:38:43Z</time>
      </trkpt>
      <trkpt lat="48.10309" lon="6.74406">
        <ele>715</ele>
        <time>2014-10-26T10:39:11Z</time>
      </trkpt>
      <trkpt lat="48.1031" lon="6.7441">
        <ele>715</ele>
        <time>2014-10-26T10:39:51Z</time>
      </trkpt>
      <trkpt lat="48.1031" lon="6.74411">
        <ele>715</ele>
        <time>2014-10-26T10:39:52Z</time>
      </trkpt>
      <trkpt lat="48.10294" lon="6.74448">
        <ele>715</ele>
        <time>2014-10-26T10:40:02Z</time>
      </trkpt>
      <trkpt lat="48.10288" lon="6.74457">
        <ele>715</ele>
        <time>2014-10-26T10:40:13Z</time>
      </trkpt>
      <trkpt lat="48.1029" lon="6.74457">
        <ele>715</ele>
        <time>2014-10-26T10:40:15Z</time>
      </trkpt>
      <trkpt lat="48.10297" lon="6.7446">
        <ele>714</ele>
        <time>2014-10-26T10:40:18Z</time>
      </trkpt>
      <trkpt lat="48.10322" lon="6.74458">
        <ele>713</ele>
        <time>2014-10-26T10:40:24Z</time>
      </trkpt>
      <trkpt lat="48.10339" lon="6.74464">
        <ele>708</ele>
        <time>2014-10-26T10:40:27Z</time>
      </trkpt>
      <trkpt lat="48.10391" lon="6.74474">
        <ele>706</ele>
        <time>2014-10-26T10:40:36Z</time>
      </trkpt>
      <trkpt lat="48.10447" lon="6.74456">
        <ele>700</ele>
        <time>2014-10-26T10:40:46Z</time>
      </trkpt>
      <trkpt lat="48.10452" lon="6.74451">
        <ele>700</ele>
        <time>2014-10-26T10:40:47Z</time>
      </trkpt>
      <trkpt lat="48.10483" lon="6.74445">
        <ele>699</ele>
        <time>2014-10-26T10:40:53Z</time>
      </trkpt>
      <trkpt lat="48.10498" lon="6.74441">
        <ele>698</ele>
        <time>2014-10-26T10:40:56Z</time>
      </trkpt>
      <trkpt lat="48.10538" lon="6.74439">
        <ele>687</ele>
        <time>2014-10-26T10:41:04Z</time>
      </trkpt>
      <trkpt lat="48.10541" lon="6.7444">
        <ele>686</ele>
        <time>2014-10-26T10:41:05Z</time>
      </trkpt>
      <trkpt lat="48.10553" lon="6.74444">
        <ele>685</ele>
        <time>2014-10-26T10:41:10Z</time>
      </trkpt>
      <trkpt lat="48.10577" lon="6.74445">
        <ele>683</ele>
        <time>2014-10-26T10:41:21Z</time>
      </trkpt>
      <trkpt lat="48.10593" lon="6.74421">
        <ele>675</ele>
        <time>2014-10-26T10:41:31Z</time>
      </trkpt>
      <trkpt lat="48.10602" lon="6.74405">
        <ele>675</ele>
        <time>2014-10-26T10:41:34Z</time>
      </trkpt>
      <trkpt lat="48.10614" lon="6.7439">
        <ele>673</ele>
        <time>2014-10-26T10:41:37Z</time>
      </trkpt>
      <trkpt lat="48.10624" lon="6.74372">
        <ele>672</ele>
        <time>2014-10-26T10:41:40Z</time>
      </trkpt>
      <trkpt lat="48.10648" lon="6.74324">
        <ele>669</ele>
        <time>2014-10-26T10:41:49Z</time>
      </trkpt>
      <trkpt lat="48.10652" lon="6.74313">
        <ele>669</ele>
        <time>2014-10-26T10:41:53Z</time>
      </trkpt>
      <trkpt lat="48.10661" lon="6.743">
        <ele>669</ele>
        <time>2014-10-26T10:41:57Z</time>
      </trkpt>
      <trkpt lat="48.10692" lon="6.74258">
        <ele>658</ele>
        <time>2014-10-26T10:42:07Z</time>
      </trkpt>
      <trkpt lat="48.10708" lon="6.74249">
        <ele>655</ele>
        <time>2014-10-26T10:42:12Z</time>
      </trkpt>
      <trkpt lat="48.1073" lon="6.74236">
        <ele>653</ele>
        <time>2014-10-26T10:42:20Z</time>
      </trkpt>
      <trkpt lat="48.10745" lon="6.74233">
        <ele>651</ele>
        <time>2014-10-26T10:42:25Z</time>
      </trkpt>
      <trkpt lat="48.10768" lon="6.74227">
        <ele>642</ele>
        <time>2014-10-26T10:42:37Z</time>
      </trkpt>
      <trkpt lat="48.10775" lon="6.74226">
        <ele>641</ele>
        <time>2014-10-26T10:42:58Z</time>
      </trkpt>
      <trkpt lat="48.10776" lon="6.74225">
        <ele>641</ele>
        <time>2014-10-26T10:43:02Z</time>
      </trkpt>
      <trkpt lat="48.10768" lon="6.74246">
        <ele>643</ele>
        <time>2014-10-26T10:43:11Z</time>
      </trkpt>
      <trkpt lat="48.10759" lon="6.74274">
        <ele>639</ele>
        <time>2014-10-26T10:43:17Z</time>
      </trkpt>
      <trkpt lat="48.10749" lon="6.74306">
        <ele>650</ele>
        <time>2014-10-26T10:43:21Z</time>
      </trkpt>
      <trkpt lat="48.10743" lon="6.74321">
        <ele>648</ele>
        <time>2014-10-26T10:43:23Z</time>
      </trkpt>
      <trkpt lat="48.10745" lon="6.74381">
        <ele>645</ele>
        <time>2014-10-26T10:43:30Z</time>
      </trkpt>
      <trkpt lat="48.10746" lon="6.7439">
        <ele>643</ele>
        <time>2014-10-26T10:43:31Z</time>
      </trkpt>
      <trkpt lat="48.10743" lon="6.74432">
        <ele>634</ele>
        <time>2014-10-26T10:43:41Z</time>
      </trkpt>
      <trkpt lat="48.10742" lon="6.74434">
        <ele>634</ele>
        <time>2014-10-26T10:43:42Z</time>
      </trkpt>
      <trkpt lat="48.10741" lon="6.74438">
        <ele>634</ele>
        <time>2014-10-26T10:43:44Z</time>
      </trkpt>
      <trkpt lat="48.10749" lon="6.74462">
        <ele>631</ele>
        <time>2014-10-26T10:44:01Z</time>
      </trkpt>
      <trkpt lat="48.10747" lon="6.74478">
        <ele>627</ele>
        <time>2014-10-26T10:44:11Z</time>
      </trkpt>
      <trkpt lat="48.10746" lon="6.74484">
        <ele>624</ele>
        <time>2014-10-26T10:44:15Z</time>
      </trkpt>
      <trkpt lat="48.1074" lon="6.74505">
        <ele>615</ele>
        <time>2014-10-26T10:44:20Z</time>
      </trkpt>
      <trkpt lat="48.10737" lon="6.74548">
        <ele>613</ele>
        <time>2014-10-26T10:44:30Z</time>
      </trkpt>
      <trkpt lat="48.10737" lon="6.74553">
        <ele>612</ele>
        <time>2014-10-26T10:44:31Z</time>
      </trkpt>
      <trkpt lat="48.10734" lon="6.74572">
        <ele>607</ele>
        <time>2014-10-26T10:44:34Z</time>
      </trkpt>
      <trkpt lat="48.10702" lon="6.74612">
        <ele>604</ele>
        <time>2014-10-26T10:44:44Z</time>
      </trkpt>
      <trkpt lat="48.10673" lon="6.74644">
        <ele>604</ele>
        <time>2014-10-26T10:44:56Z</time>
      </trkpt>
      <trkpt lat="48.10675" lon="6.74677">
        <ele>600</ele>
        <time>2014-10-26T10:45:04Z</time>
      </trkpt>
      <trkpt lat="48.10676" lon="6.74683">
        <ele>598</ele>
        <time>2014-10-26T10:45:05Z</time>
      </trkpt>
      <trkpt lat="48.10679" lon="6.74705">
        <ele>594</ele>
        <time>2014-10-26T10:45:08Z</time>
      </trkpt>
      <trkpt lat="48.10676" lon="6.74746">
        <ele>593</ele>
        <time>2014-10-26T10:45:13Z</time>
      </trkpt>
      <trkpt lat="48.10676" lon="6.74804">
        <ele>587</ele>
        <time>2014-10-26T10:45:20Z</time>
      </trkpt>
      <trkpt lat="48.1069" lon="6.74862">
        <ele>585</ele>
        <time>2014-10-26T10:45:30Z</time>
      </trkpt>
      <trkpt lat="48.10703" lon="6.749">
        <ele>585</ele>
        <time>2014-10-26T10:45:39Z</time>
      </trkpt>
      <trkpt lat="48.10703" lon="6.74901">
        <ele>585</ele>
        <time>2014-10-26T10:45:40Z</time>
      </trkpt>
      <trkpt lat="48.10702" lon="6.74902">
        <ele>585</ele>
        <time>2014-10-26T10:45:47Z</time>
      </trkpt>
      <trkpt lat="48.10711" lon="6.74867">
        <ele>584</ele>
        <time>2014-10-26T10:45:58Z</time>
      </trkpt>
      <trkpt lat="48.10725" lon="6.74856">
        <ele>583</ele>
        <time>2014-10-26T10:46:02Z</time>
      </trkpt>
      <trkpt lat="48.10757" lon="6.74821">
        <ele>579</ele>
        <time>2014-10-26T10:46:11Z</time>
      </trkpt>
      <trkpt lat="48.10761" lon="6.74817">
        <ele>578</ele>
        <time>2014-10-26T10:46:12Z</time>
      </trkpt>
      <trkpt lat="48.10774" lon="6.74795">
        <ele>578</ele>
        <time>2014-10-26T10:46:16Z</time>
      </trkpt>
      <trkpt lat="48.10786" lon="6.74744">
        <ele>578</ele>
        <time>2014-10-26T10:46:22Z</time>
      </trkpt>
      <trkpt lat="48.10799" lon="6.74711">
        <ele>578</ele>
        <time>2014-10-26T10:46:26Z</time>
      </trkpt>
      <trkpt lat="48.10835" lon="6.74649">
        <ele>573</ele>
        <time>2014-10-26T10:46:37Z</time>
      </trkpt>
      <trkpt lat="48.10838" lon="6.74642">
        <ele>572</ele>
        <time>2014-10-26T10:46:38Z</time>
      </trkpt>
      <trkpt lat="48.10859" lon="6.74615">
        <ele>572</ele>
        <time>2014-10-26T10:46:48Z</time>
      </trkpt>
      <trkpt lat="48.1086" lon="6.74614">
        <ele>572</ele>
        <time>2014-10-26T10:46:49Z</time>
      </trkpt>
      <trkpt lat="48.10878" lon="6.74581">
        <ele>571</ele>
        <time>2014-10-26T10:47:00Z</time>
      </trkpt>
      <trkpt lat="48.10898" lon="6.74553">
        <ele>570</ele>
        <time>2014-10-26T10:47:08Z</time>
      </trkpt>
      <trkpt lat="48.1091" lon="6.74534">
        <ele>570</ele>
        <time>2014-10-26T10:47:12Z</time>
      </trkpt>
      <trkpt lat="48.10932" lon="6.74495">
        <ele>564</ele>
        <time>2014-10-26T10:47:19Z</time>
      </trkpt>
      <trkpt lat="48.10941" lon="6.7448">
        <ele>563</ele>
        <time>2014-10-26T10:47:22Z</time>
      </trkpt>
      <trkpt lat="48.10952" lon="6.74457">
        <ele>563</ele>
        <time>2014-10-26T10:47:26Z</time>
      </trkpt>
      <trkpt lat="48.10978" lon="6.74427">
        <ele>560</ele>
        <time>2014-10-26T10:47:34Z</time>
      </trkpt>
      <trkpt lat="48.10985" lon="6.74419">
        <ele>558</ele>
        <time>2014-10-26T10:47:36Z</time>
      </trkpt>
      <trkpt lat="48.10993" lon="6.74406">
        <ele>558</ele>
        <time>2014-10-26T10:47:38Z</time>
      </trkpt>
      <trkpt lat="48.11002" lon="6.74394">
        <ele>552</ele>
        <time>2014-10-26T10:47:40Z</time>
      </trkpt>
      <trkpt lat="48.11015" lon="6.74377">
        <ele>551</ele>
        <time>2014-10-26T10:47:43Z</time>
      </trkpt>
      <trkpt lat="48.11049" lon="6.7435">
        <ele>548</ele>
        <time>2014-10-26T10:47:50Z</time>
      </trkpt>
      <trkpt lat="48.11074" lon="6.74317">
        <ele>544</ele>
        <time>2014-10-26T10:47:55Z</time>
      </trkpt>
      <trkpt lat="48.11109" lon="6.74261">
        <ele>542</ele>
        <time>2014-10-26T10:48:07Z</time>
      </trkpt>
      <trkpt lat="48.11123" lon="6.74243">
        <ele>541</ele>
        <time>2014-10-26T10:48:17Z</time>
      </trkpt>
      <trkpt lat="48.11127" lon="6.74244">
        <ele>541</ele>
        <time>2014-10-26T10:48:41Z</time>
      </trkpt>
      <trkpt lat="48.11132" lon="6.7424">
        <ele>541</ele>
        <time>2014-10-26T10:48:54Z</time>
      </trkpt>
      <trkpt lat="48.11133" lon="6.74233">
        <ele>541</ele>
        <time>2014-10-26T10:50:31Z</time>
      </trkpt>
      <trkpt lat="48.11135" lon="6.74236">
        <ele>541</ele>
        <time>2014-10-26T10:50:55Z</time>
      </trkpt>
      <trkpt lat="48.11134" lon="6.74234">
        <ele>541</ele>
        <time>2014-10-26T10:51:16Z</time>
      </trkpt>
      <trkpt lat="48.11139" lon="6.74236">
        <ele>541</ele>
        <time>2014-10-26T10:52:37Z</time>
      </trkpt>
      <trkpt lat="48.11143" lon="6.7423">
        <ele>541</ele>
        <time>2014-10-26T10:52:41Z</time>
      </trkpt>
      <trkpt lat="48.11149" lon="6.74216">
        <ele>541</ele>
        <time>2014-10-26T10:52:45Z</time>
      </trkpt>
      <trkpt lat="48.11152" lon="6.74204">
        <ele>541</ele>
        <time>2014-10-26T10:52:47Z</time>
      </trkpt>
      <trkpt lat="48.11154" lon="6.74184">
        <ele>540</ele>
        <time>2014-10-26T10:52:50Z</time>
      </trkpt>
      <trkpt lat="48.11158" lon="6.74162">
        <ele>539</ele>
        <time>2014-10-26T10:52:55Z</time>
      </trkpt>
      <trkpt lat="48.11163" lon="6.74138">
        <ele>540</ele>
        <time>2014-10-26T10:53:04Z</time>
      </trkpt>
      <trkpt lat="48.11161" lon="6.74139">
        <ele>540</ele>
        <time>2014-10-26T10:53:18Z</time>
      </trkpt>
      <trkpt lat="48.11156" lon="6.74151">
        <ele>540</ele>
        <time>2014-10-26T10:53:24Z</time>
      </trkpt>
      <trkpt lat="48.11148" lon="6.74185">
        <ele>541</ele>
        <time>2014-10-26T10:53:32Z</time>
      </trkpt>
      <trkpt lat="48.11141" lon="6.74212">
        <ele>541</ele>
        <time>2014-10-26T10:53:39Z</time>
      </trkpt>
      <trkpt lat="48.11139" lon="6.74227">
        <ele>541</ele>
        <time>2014-10-26T10:53:55Z</time>
      </trkpt>
      <trkpt lat="48.11137" lon="6.74229">
        <ele>541</ele>
        <time>2014-10-26T10:55:14Z</time>
      </trkpt>
      <trkpt lat="48.1115" lon="6.74201">
        <ele>541</ele>
        <time>2014-10-26T10:55:25Z</time>
      </trkpt>
      <trkpt lat="48.11152" lon="6.74189">
        <ele>541</ele>
        <time>2014-10-26T10:55:27Z</time>
      </trkpt>
      <trkpt lat="48.11155" lon="6.74165">
        <ele>539</ele>
        <time>2014-10-26T10:55:31Z</time>
      </trkpt>
      <trkpt lat="48.11164" lon="6.74139">
        <ele>540</ele>
        <time>2014-10-26T10:55:36Z</time>
      </trkpt>
      <trkpt lat="48.11167" lon="6.74128">
        <ele>535</ele>
        <time>2014-10-26T10:55:38Z</time>
      </trkpt>
      <trkpt lat="48.11176" lon="6.74103">
        <ele>534</ele>
        <time>2014-10-26T10:55:42Z</time>
      </trkpt>
      <trkpt lat="48.11184" lon="6.74087">
        <ele>534</ele>
        <time>2014-10-26T10:55:45Z</time>
      </trkpt>
      <trkpt lat="48.11204" lon="6.74055">
        <ele>529</ele>
        <time>2014-10-26T10:55:51Z</time>
      </trkpt>
      <trkpt lat="48.11213" lon="6.74043">
        <ele>529</ele>
        <time>2014-10-26T10:55:53Z</time>
      </trkpt>
      <trkpt lat="48.11233" lon="6.74006">
        <ele>526</ele>
        <time>2014-10-26T10:55:58Z</time>
      </trkpt>
      <trkpt lat="48.11266" lon="6.73943">
        <ele>526</ele>
        <time>2014-10-26T10:56:06Z</time>
      </trkpt>
      <trkpt lat="48.11285" lon="6.73909">
        <ele>526</ele>
        <time>2014-10-26T10:56:11Z</time>
      </trkpt>
      <trkpt lat="48.11319" lon="6.73862">
        <ele>525</ele>
        <time>2014-10-26T10:56:18Z</time>
      </trkpt>
      <trkpt lat="48.11336" lon="6.73846">
        <ele>525</ele>
        <time>2014-10-26T10:56:21Z</time>
      </trkpt>
      <trkpt lat="48.11373" lon="6.73801">
        <ele>525</ele>
        <time>2014-10-26T10:56:28Z</time>
      </trkpt>
      <trkpt lat="48.11398" lon="6.73773">
        <ele>524</ele>
        <time>2014-10-26T10:56:33Z</time>
      </trkpt>
      <trkpt lat="48.11453" lon="6.73678">
        <ele>523</ele>
        <time>2014-10-26T10:56:47Z</time>
      </trkpt>
      <trkpt lat="48.1152" lon="6.73605">
        <ele>520</ele>
        <time>2014-10-26T10:57:01Z</time>
      </trkpt>
      <trkpt lat="48.11595" lon="6.73476">
        <ele>517</ele>
        <time>2014-10-26T10:57:17Z</time>
      </trkpt>
      <trkpt lat="48.11671" lon="6.73351">
        <ele>514</ele>
        <time>2014-10-26T10:57:32Z</time>
      </trkpt>
      <trkpt lat="48.11704" lon="6.73329">
        <ele>509</ele>
        <time>2014-10-26T10:57:37Z</time>
      </trkpt>
      <trkpt lat="48.11733" lon="6.7332">
        <ele>510</ele>
        <time>2014-10-26T10:57:42Z</time>
      </trkpt>
      <trkpt lat="48.11747" lon="6.73329">
        <ele>511</ele>
        <time>2014-10-26T10:57:50Z</time>
      </trkpt>
      <trkpt lat="48.11748" lon="6.73331">
        <ele>512</ele>
        <time>2014-10-26T10:57:51Z</time>
      </trkpt>
      <trkpt lat="48.11741" lon="6.73349">
        <ele>516</ele>
        <time>2014-10-26T10:58:01Z</time>
      </trkpt>
      <trkpt lat="48.11735" lon="6.73357">
        <ele>517</ele>
        <time>2014-10-26T10:58:05Z</time>
      </trkpt>
      <trkpt lat="48.11701" lon="6.73397">
        <ele>520</ele>
        <time>2014-10-26T10:58:21Z</time>
      </trkpt>
      <trkpt lat="48.11686" lon="6.73414">
        <ele>520</ele>
        <time>2014-10-26T10:58:28Z</time>
      </trkpt>
      <trkpt lat="48.11675" lon="6.73433">
        <ele>526</ele>
        <time>2014-10-26T10:58:34Z</time>
      </trkpt>
      <trkpt lat="48.11657" lon="6.73466">
        <ele>523</ele>
        <time>2014-10-26T10:58:44Z</time>
      </trkpt>
      <trkpt lat="48.11648" lon="6.73488">
        <ele>525</ele>
        <time>2014-10-26T10:58:50Z</time>
      </trkpt>
      <trkpt lat="48.11627" lon="6.73526">
        <ele>527</ele>
        <time>2014-10-26T10:59:03Z</time>
      </trkpt>
      <trkpt lat="48.11608" lon="6.73571">
        <ele>526</ele>
        <time>2014-10-26T10:59:19Z</time>
      </trkpt>
      <trkpt lat="48.11598" lon="6.73613">
        <ele>529</ele>
        <time>2014-10-26T10:59:34Z</time>
      </trkpt>
      <trkpt lat="48.11583" lon="6.73668">
        <ele>528</ele>
        <time>2014-10-26T10:59:51Z</time>
      </trkpt>
      <trkpt lat="48.11565" lon="6.73715">
        <ele>532</ele>
        <time>2014-10-26T11:00:08Z</time>
      </trkpt>
      <trkpt lat="48.11545" lon="6.73763">
        <ele>542</ele>
        <time>2014-10-26T11:00:25Z</time>
      </trkpt>
      <trkpt lat="48.11527" lon="6.73809">
        <ele>546</ele>
        <time>2014-10-26T11:00:43Z</time>
      </trkpt>
      <trkpt lat="48.11513" lon="6.73843">
        <ele>552</ele>
        <time>2014-10-26T11:00:56Z</time>
      </trkpt>
      <trkpt lat="48.115" lon="6.73868">
        <ele>551</ele>
        <time>2014-10-26T11:01:07Z</time>
      </trkpt>
      <trkpt lat="48.11493" lon="6.7388">
        <ele>551</ele>
        <time>2014-10-26T11:01:12Z</time>
      </trkpt>
      <trkpt lat="48.11475" lon="6.73911">
        <ele>553</ele>
        <time>2014-10-26T11:01:25Z</time>
      </trkpt>
      <trkpt lat="48.11459" lon="6.7393">
        <ele>557</ele>
        <time>2014-10-26T11:01:35Z</time>
      </trkpt>
      <trkpt lat="48.11446" lon="6.73941">
        <ele>557</ele>
        <time>2014-10-26T11:01:42Z</time>
      </trkpt>
      <trkpt lat="48.11438" lon="6.73957">
        <ele>557</ele>
        <time>2014-10-26T11:01:49Z</time>
      </trkpt>
      <trkpt lat="48.11431" lon="6.7398">
        <ele>558</ele>
        <time>2014-10-26T11:02:00Z</time>
      </trkpt>
      <trkpt lat="48.11423" lon="6.74015">
        <ele>560</ele>
        <time>2014-10-26T11:02:13Z</time>
      </trkpt>
      <trkpt lat="48.11422" lon="6.74044">
        <ele>561</ele>
        <time>2014-10-26T11:02:24Z</time>
      </trkpt>
      <trkpt lat="48.11423" lon="6.74063">
        <ele>561</ele>
        <time>2014-10-26T11:02:33Z</time>
      </trkpt>
      <trkpt lat="48.11421" lon="6.74078">
        <ele>561</ele>
        <time>2014-10-26T11:02:40Z</time>
      </trkpt>
      <trkpt lat="48.11417" lon="6.74113">
        <ele>565</ele>
        <time>2014-10-26T11:02:58Z</time>
      </trkpt>
      <trkpt lat="48.11411" lon="6.74132">
        <ele>556</ele>
        <time>2014-10-26T11:03:07Z</time>
      </trkpt>
      <trkpt lat="48.1141" lon="6.74146">
        <ele>558</ele>
        <time>2014-10-26T11:03:18Z</time>
      </trkpt>
      <trkpt lat="48.11409" lon="6.74154">
        <ele>559</ele>
        <time>2014-10-26T11:03:22Z</time>
      </trkpt>
      <trkpt lat="48.11401" lon="6.74188">
        <ele>563</ele>
        <time>2014-10-26T11:03:39Z</time>
      </trkpt>
      <trkpt lat="48.11391" lon="6.74226">
        <ele>565</ele>
        <time>2014-10-26T11:03:52Z</time>
      </trkpt>
      <trkpt lat="48.11386" lon="6.74278">
        <ele>573</ele>
        <time>2014-10-26T11:04:07Z</time>
      </trkpt>
      <trkpt lat="48.11397" lon="6.74322">
        <ele>577</ele>
        <time>2014-10-26T11:04:21Z</time>
      </trkpt>
      <trkpt lat="48.11403" lon="6.74365">
        <ele>582</ele>
        <time>2014-10-26T11:04:33Z</time>
      </trkpt>
      <trkpt lat="48.11383" lon="6.74406">
        <ele>582</ele>
        <time>2014-10-26T11:04:48Z</time>
      </trkpt>
      <trkpt lat="48.11355" lon="6.74436">
        <ele>583</ele>
        <time>2014-10-26T11:05:03Z</time>
      </trkpt>
      <trkpt lat="48.11334" lon="6.74471">
        <ele>584</ele>
        <time>2014-10-26T11:05:18Z</time>
      </trkpt>
      <trkpt lat="48.11321" lon="6.74506">
        <ele>581</ele>
        <time>2014-10-26T11:05:30Z</time>
      </trkpt>
      <trkpt lat="48.11317" lon="6.74514">
        <ele>581</ele>
        <time>2014-10-26T11:05:33Z</time>
      </trkpt>
      <trkpt lat="48.11309" lon="6.74534">
        <ele>580</ele>
        <time>2014-10-26T11:05:40Z</time>
      </trkpt>
      <trkpt lat="48.11299" lon="6.74595">
        <ele>585</ele>
        <time>2014-10-26T11:05:58Z</time>
      </trkpt>
      <trkpt lat="48.11299" lon="6.74662">
        <ele>587</ele>
        <time>2014-10-26T11:06:12Z</time>
      </trkpt>
      <trkpt lat="48.1131" lon="6.74756">
        <ele>595</ele>
        <time>2014-10-26T11:06:32Z</time>
      </trkpt>
      <trkpt lat="48.11337" lon="6.74823">
        <ele>599</ele>
        <time>2014-10-26T11:06:49Z</time>
      </trkpt>
      <trkpt lat="48.11345" lon="6.74867">
        <ele>601</ele>
        <time>2014-10-26T11:06:59Z</time>
      </trkpt>
      <trkpt lat="48.11355" lon="6.74883">
        <ele>602</ele>
        <time>2014-10-26T11:07:09Z</time>
      </trkpt>
      <trkpt lat="48.11355" lon="6.74884">
        <ele>602</ele>
        <time>2014-10-26T11:07:15Z</time>
      </trkpt>
      <trkpt lat="48.11368" lon="6.74924">
        <ele>602</ele>
        <time>2014-10-26T11:07:33Z</time>
      </trkpt>
      <trkpt lat="48.11389" lon="6.74972">
        <ele>604</ele>
        <time>2014-10-26T11:07:55Z</time>
      </trkpt>
      <trkpt lat="48.11413" lon="6.74996">
        <ele>609</ele>
        <time>2014-10-26T11:08:13Z</time>
      </trkpt>
      <trkpt lat="48.11421" lon="6.75004">
        <ele>612</ele>
        <time>2014-10-26T11:08:19Z</time>
      </trkpt>
      <trkpt lat="48.11422" lon="6.75021">
        <ele>614</ele>
        <time>2014-10-26T11:08:27Z</time>
      </trkpt>
      <trkpt lat="48.11419" lon="6.7503">
        <ele>615</ele>
        <time>2014-10-26T11:08:33Z</time>
      </trkpt>
      <trkpt lat="48.1142" lon="6.7504">
        <ele>615</ele>
        <time>2014-10-26T11:08:38Z</time>
      </trkpt>
      <trkpt lat="48.11423" lon="6.75036">
        <ele>615</ele>
        <time>2014-10-26T11:08:46Z</time>
      </trkpt>
      <trkpt lat="48.11422" lon="6.75033">
        <ele>615</ele>
        <time>2014-10-26T11:08:54Z</time>
      </trkpt>
      <trkpt lat="48.11422" lon="6.75029">
        <ele>615</ele>
        <time>2014-10-26T11:08:58Z</time>
      </trkpt>
      <trkpt lat="48.11435" lon="6.75022">
        <ele>615</ele>
        <time>2014-10-26T11:09:05Z</time>
      </trkpt>
      <trkpt lat="48.11452" lon="6.75073">
        <ele>617</ele>
        <time>2014-10-26T11:09:19Z</time>
      </trkpt>
      <trkpt lat="48.11466" lon="6.75133">
        <ele>620</ele>
        <time>2014-10-26T11:09:35Z</time>
      </trkpt>
      <trkpt lat="48.11482" lon="6.75192">
        <ele>623</ele>
        <time>2014-10-26T11:09:53Z</time>
      </trkpt>
      <trkpt lat="48.11503" lon="6.75196">
        <ele>631</ele>
        <time>2014-10-26T11:10:06Z</time>
      </trkpt>
      <trkpt lat="48.11522" lon="6.7517">
        <ele>631</ele>
        <time>2014-10-26T11:10:21Z</time>
      </trkpt>
      <trkpt lat="48.11524" lon="6.75167">
        <ele>630</ele>
        <time>2014-10-26T11:10:23Z</time>
      </trkpt>
      <trkpt lat="48.11536" lon="6.751">
        <ele>630</ele>
        <time>2014-10-26T11:10:38Z</time>
      </trkpt>
      <trkpt lat="48.11535" lon="6.75007">
        <ele>627</ele>
        <time>2014-10-26T11:10:50Z</time>
      </trkpt>
      <trkpt lat="48.11536" lon="6.74972">
        <ele>626</ele>
        <time>2014-10-26T11:11:00Z</time>
      </trkpt>
      <trkpt lat="48.11528" lon="6.74968">
        <ele>626</ele>
        <time>2014-10-26T11:14:25Z</time>
      </trkpt>
      <trkpt lat="48.11529" lon="6.74965">
        <ele>626</ele>
        <time>2014-10-26T11:14:36Z</time>
      </trkpt>
      <trkpt lat="48.11529" lon="6.74963">
        <ele>626</ele>
        <time>2014-10-26T11:14:55Z</time>
      </trkpt>
      <trkpt lat="48.11528" lon="6.7496">
        <ele>626</ele>
        <time>2014-10-26T11:15:04Z</time>
      </trkpt>
      <trkpt lat="48.11529" lon="6.74961">
        <ele>626</ele>
        <time>2014-10-26T11:15:13Z</time>
      </trkpt>
      <trkpt lat="48.11531" lon="6.74955">
        <ele>626</ele>
        <time>2014-10-26T11:15:23Z</time>
      </trkpt>
      <trkpt lat="48.11532" lon="6.74954">
        <ele>626</ele>
        <time>2014-10-26T11:15:24Z</time>
      </trkpt>
      <trkpt lat="48.11536" lon="6.7495">
        <ele>626</ele>
        <time>2014-10-26T11:15:33Z</time>
      </trkpt>
      <trkpt lat="48.1154" lon="6.74955">
        <ele>626</ele>
        <time>2014-10-26T11:16:55Z</time>
      </trkpt>
    </trkseg>
  </trk>
</gpx>